Observation data for Boys Ranch on 06/15/2019      Previous  Date  Next       Current Mesonet Observations  Soil Data  Daily Summary Page  Observations in Plain Language
KBY1 150500Z 20009KT 26/09 A2972 RMK A01 T02590093  RH  035%=      5-min Rain = 0
KBY1 150501Z 21011KT 26/09 A2972 RMK A01 T02580091  RH  035%=      5-min Rain = 0
KBY1 150502Z 21010KT 26/09 A2972 RMK A01 T02590089  RH  034%=      5-min Rain = 0
KBY1 150503Z 22009KT 26/09 A2973 RMK A01 T02600088  RH  034%=      5-min Rain = 0
KBY1 150504Z 25007KT 26/09 A2973 RMK A01 T02600087  RH  033%=      5-min Rain = 0
KBY1 150505Z 30012KT 26/09 A2974 RMK A01 T02610085  RH  033%=      5-min Rain = 0
KBY1 150506Z 31009KT 26/09 A2975 RMK A01 T02620092  RH  034%=      5-min Rain = 0
KBY1 150507Z 33007KT 26/10 A2975 RMK A01 T02590100  RH  037%=      5-min Rain = 0
KBY1 150508Z 34010KT 26/10 A2975 RMK A01 T02560103  RH  038%=      5-min Rain = 0
KBY1 150509Z 32010KT 25/10 A2975 RMK A01 T02540100  RH  038%=      5-min Rain = 0
KBY1 150510Z 31014G25KT 26/10 A2975 RMK A01 T02550099  RH  037%=      5-min Rain = 0
KBY1 150511Z 29014G29KT 26/08 A2974 RMK A01 T02580079  RH  032%=      5-min Rain = 0
KBY1 150512Z 22010G15KT 27/08 A2974 RMK A01 T02650075  RH  030%=      5-min Rain = 0
KBY1 150513Z 23010KT 27/07 A2974 RMK A01 T02700073  RH  029%=      5-min Rain = 0
KBY1 150514Z 23010KT 27/08 A2974 RMK A01 T02710079  RH  030%=      5-min Rain = 0
KBY1 150515Z 27009KT 27/08 A2974 RMK A01 T02690081  RH  030%=      5-min Rain = 0
KBY1 150516Z 26012KT 27/08 A2975 RMK A01 T02670077  RH  030%=      5-min Rain = 0
KBY1 150517Z 27011G16KT 27/08 A2975 RMK A01 T02680077  RH  030%=      5-min Rain = 0
KBY1 150518Z 27009KT 27/08 A2975 RMK A01 T02680078  RH  030%=      5-min Rain = 0
KBY1 150519Z 28007KT 27/08 A2975 RMK A01 T02670080  RH  030%=      5-min Rain = 0
KBY1 150520Z 26010KT 27/08 A2975 RMK A01 T02650075  RH  030%=      5-min Rain = 0
KBY1 150521Z 25009KT 27/07 A2974 RMK A01 T02660070  RH  029%=      5-min Rain = 0
KBY1 150522Z 24010KT 27/07 A2974 RMK A01 T02670071  RH  029%=      5-min Rain = 0
KBY1 150523Z 24008KT 27/07 A2974 RMK A01 T02670071  RH  029%=      5-min Rain = 0
KBY1 150524Z 28007KT 27/07 A2975 RMK A01 T02670074  RH  029%=      5-min Rain = 0
KBY1 150525Z 28006KT 27/07 A2975 RMK A01 T02650073  RH  029%=      5-min Rain = 0
KBY1 150526Z 30008KT 26/07 A2975 RMK A01 T02640074  RH  030%=      5-min Rain = 0
KBY1 150527Z 30008KT 26/07 A2975 RMK A01 T02630074  RH  030%=      5-min Rain = 0
KBY1 150528Z 28007KT 26/07 A2975 RMK A01 T02620071  RH  030%=      5-min Rain = 0
KBY1 150529Z 29005KT 26/07 A2975 RMK A01 T02630071  RH  030%=      5-min Rain = 0
KBY1 150530Z 29005KT 26/07 A2975 RMK A01 T02630073  RH  030%=      5-min Rain = 0
KBY1 150531Z 29004KT 26/07 A2975 RMK A01 T02620070  RH  029%=      5-min Rain = 0
KBY1 150532Z 27005KT 26/07 A2975 RMK A01 T02630069  RH  029%=      5-min Rain = 0
KBY1 150533Z 25004KT 26/07 A2975 RMK A01 T02620073  RH  030%=      5-min Rain = 0
KBY1 150534Z 22004KT 26/08 A2975 RMK A01 T02600079  RH  032%=      5-min Rain = 0
KBY1 150535Z 23003KT 26/08 A2975 RMK A01 T02560077  RH  032%=      5-min Rain = 0
KBY1 150536Z 21004KT 26/08 A2975 RMK A01 T02550077  RH  032%=      5-min Rain = 0
KBY1 150537Z 20004KT 25/08 A2975 RMK A01 T02520084  RH  034%=      5-min Rain = 0
KBY1 150538Z 20004KT 25/08 A2975 RMK A01 T02470084  RH  035%=      5-min Rain = 0
KBY1 150539Z 21004KT 24/09 A2975 RMK A01 T02440085  RH  036%=      5-min Rain = 0
KBY1 150540Z 20005KT 24/09 A2975 RMK A01 T02410090  RH  038%=      5-min Rain = 0
KBY1 150541Z 20005KT 24/09 A2975 RMK A01 T02380088  RH  038%=      5-min Rain = 0
KBY1 150542Z 19006KT 24/09 A2975 RMK A01 T02350086  RH  039%=      5-min Rain = 0
KBY1 150543Z 19006KT 23/08 A2975 RMK A01 T02340084  RH  038%=      5-min Rain = 0
KBY1 150544Z 18006KT 23/08 A2975 RMK A01 T02340084  RH  038%=      5-min Rain = 0
KBY1 150545Z 17006KT 23/09 A2975 RMK A01 T02330085  RH  039%=      5-min Rain = 0
KBY1 150546Z 17006KT 23/09 A2975 RMK A01 T02310086  RH  040%=      5-min Rain = 0
KBY1 150547Z 18006KT 23/09 A2975 RMK A01 T02290088  RH  041%=      5-min Rain = 0
KBY1 150548Z 18006KT 23/08 A2975 RMK A01 T02270084  RH  040%=      5-min Rain = 0
KBY1 150549Z 18004KT 23/08 A2975 RMK A01 T02270080  RH  039%=      5-min Rain = 0
KBY1 150550Z 17002KT 23/08 A2976 RMK A01 T02280079  RH  039%=      5-min Rain = 0
KBY1 150551Z 18002KT 23/08 A2976 RMK A01 T02290076  RH  037%=      5-min Rain = 0
KBY1 150552Z 23000KT 23/08 A2976 RMK A01 T02300081  RH  039%=      5-min Rain = 0
KBY1 150553Z 30000KT 23/08 A2976 RMK A01 T02300080  RH  038%=      5-min Rain = 0
KBY1 150554Z 31001KT 23/08 A2976 RMK A01 T02300084  RH  039%=      5-min Rain = 0
KBY1 150555Z 32002KT 23/08 A2976 RMK A01 T02300083  RH  039%=      5-min Rain = 0
KBY1 150556Z 01002KT 23/08 A2976 RMK A01 T02290083  RH  039%=      5-min Rain = 0
KBY1 150557Z 01003KT 23/09 A2976 RMK A01 T02290087  RH  040%=      5-min Rain = 0
KBY1 150558Z 03002KT 23/09 A2976 RMK A01 T02290085  RH  040%=      5-min Rain = 0
KBY1 150559Z 04001KT 23/08 A2976 RMK A01 T02290084  RH  039%=      5-min Rain = 0
KBY1 150600Z 04002KT 23/09 A2976 RMK A01 T02290085  RH  040%=      5-min Rain = 0
KBY1 150601Z 04002KT 23/08 A2975 RMK A01 T02290083  RH  039%=      5-min Rain = 0
KBY1 150602Z 04002KT 23/08 A2975 RMK A01 T02290084  RH  039%=      5-min Rain = 0
KBY1 150603Z 08001KT 23/08 A2975 RMK A01 T02290079  RH  038%=      5-min Rain = 0
KBY1 150604Z 34000KT 23/08 A2975 RMK A01 T02300079  RH  038%=      5-min Rain = 0
KBY1 150605Z 35002KT 23/07 A2975 RMK A01 T02320073  RH  036%=      5-min Rain = 0
KBY1 150606Z 00004KT 24/07 A2975 RMK A01 T02350072  RH  035%=      5-min Rain = 0
KBY1 150607Z 00003KT 24/07 A2975 RMK A01 T02370072  RH  035%=      5-min Rain = 0
KBY1 150608Z 03003KT 24/07 A2975 RMK A01 T02390073  RH  034%=      5-min Rain = 0
KBY1 150609Z 06002KT 24/08 A2975 RMK A01 T02390079  RH  036%=      5-min Rain = 0
KBY1 150610Z 10002KT 24/08 A2975 RMK A01 T02380079  RH  036%=      5-min Rain = 0
KBY1 150611Z 10002KT 24/07 A2975 RMK A01 T02370073  RH  035%=      5-min Rain = 0
KBY1 150612Z 09002KT 24/08 A2975 RMK A01 T02370080  RH  036%=      5-min Rain = 0
KBY1 150613Z 10005KT 24/09 A2975 RMK A01 T02360090  RH  039%=      5-min Rain = 0
KBY1 150614Z 12006KT 23/09 A2975 RMK A01 T02300090  RH  041%=      5-min Rain = 0
KBY1 150615Z 11006KT 23/09 A2975 RMK A01 T02250089  RH  042%=      5-min Rain = 0
KBY1 150616Z 11007KT 22/09 A2975 RMK A01 T02200090  RH  044%=      5-min Rain = 0
KBY1 150617Z 11006KT 22/09 A2976 RMK A01 T02170087  RH  043%=      5-min Rain = 0
KBY1 150618Z 11005KT 22/09 A2976 RMK A01 T02150090  RH  045%=      5-min Rain = 0
KBY1 150619Z 11005KT 21/09 A2976 RMK A01 T02130092  RH  046%=      5-min Rain = 0
KBY1 150620Z 11006KT 21/09 A2976 RMK A01 T02110092  RH  047%=      5-min Rain = 0
KBY1 150621Z 11005KT 21/10 A2976 RMK A01 T02090095  RH  048%=      5-min Rain = 0
KBY1 150622Z 11004KT 21/10 A2976 RMK A01 T02060096  RH  049%=      5-min Rain = 0
KBY1 150623Z 11006KT 20/10 A2976 RMK A01 T02040096  RH  050%=      5-min Rain = 0
KBY1 150624Z 11006KT 20/10 A2976 RMK A01 T02020097  RH  051%=      5-min Rain = 0
KBY1 150625Z 11006KT 20/10 A2976 RMK A01 T02000096  RH  051%=      5-min Rain = 0
KBY1 150626Z 11006KT 20/09 A2976 RMK A01 T01990094  RH  051%=      5-min Rain = 0
KBY1 150627Z 10004KT 20/09 A2976 RMK A01 T01990093  RH  050%=      5-min Rain = 0
KBY1 150628Z 11004KT 20/09 A2976 RMK A01 T01990093  RH  050%=      5-min Rain = 0
KBY1 150629Z 12003KT 20/09 A2976 RMK A01 T01990092  RH  050%=      5-min Rain = 0
KBY1 150630Z 12003KT 20/09 A2976 RMK A01 T01990092  RH  050%=      5-min Rain = 0
KBY1 150631Z 14002KT 20/09 A2976 RMK A01 T01980094  RH  051%=      5-min Rain = 0
KBY1 150632Z 21001KT 20/10 A2977 RMK A01 T01970098  RH  053%=      5-min Rain = 0
KBY1 150633Z 32004KT 20/10 A2977 RMK A01 T01950097  RH  053%=      5-min Rain = 0
KBY1 150634Z 32004KT 19/09 A2977 RMK A01 T01940093  RH  052%=      5-min Rain = 0
KBY1 150635Z 32004KT 19/09 A2977 RMK A01 T01940090  RH  051%=      5-min Rain = 0
KBY1 150636Z 30002KT 20/09 A2976 RMK A01 T01960087  RH  049%=      5-min Rain = 0
KBY1 150637Z 24001KT 20/08 A2976 RMK A01 T01990075  RH  045%=      5-min Rain = 0
KBY1 150638Z 19001KT 20/07 A2976 RMK A01 T02020071  RH  043%=      5-min Rain = 0
KBY1 150639Z 18001KT 20/07 A2976 RMK A01 T02040070  RH  042%=      5-min Rain = 0
KBY1 150640Z 18001KT 21/07 A2976 RMK A01 T02050070  RH  042%=      5-min Rain = 0
KBY1 150641Z 20001KT 21/07 A2976 RMK A01 T02060068  RH  041%=      5-min Rain = 0
KBY1 150642Z 19002KT 21/07 A2977 RMK A01 T02070074  RH  042%=      5-min Rain = 0
KBY1 150643Z 19004KT 21/08 A2977 RMK A01 T02070077  RH  043%=      5-min Rain = 0
KBY1 150644Z 19004KT 21/08 A2977 RMK A01 T02070076  RH  043%=      5-min Rain = 0
KBY1 150645Z 19006KT 21/07 A2977 RMK A01 T02070070  RH  041%=      5-min Rain = 0
KBY1 150646Z 19007KT 21/06 A2977 RMK A01 T02080064  RH  039%=      5-min Rain = 0
KBY1 150647Z 19008KT 21/06 A2976 RMK A01 T02100058  RH  037%=      5-min Rain = 0
KBY1 150648Z 20008KT 21/06 A2976 RMK A01 T02130060  RH  037%=      5-min Rain = 0
KBY1 150649Z 21006KT 21/06 A2977 RMK A01 T02140060  RH  037%=      5-min Rain = 0
KBY1 150650Z 23006KT 21/06 A2976 RMK A01 T02140061  RH  037%=      5-min Rain = 0
KBY1 150651Z 24008KT 22/06 A2976 RMK A01 T02150060  RH  036%=      5-min Rain = 0
KBY1 150652Z 25007KT 22/06 A2977 RMK A01 T02160059  RH  036%=      5-min Rain = 0
KBY1 150653Z 24008KT 22/06 A2977 RMK A01 T02180060  RH  036%=      5-min Rain = 0
KBY1 150654Z 23007KT 22/06 A2977 RMK A01 T02180061  RH  036%=      5-min Rain = 0
KBY1 150655Z 23006KT 22/06 A2977 RMK A01 T02180059  RH  035%=      5-min Rain = 0
KBY1 150656Z 23005KT 22/06 A2976 RMK A01 T02180060  RH  036%=      5-min Rain = 0
KBY1 150657Z 24005KT 22/06 A2977 RMK A01 T02180061  RH  036%=      5-min Rain = 0
KBY1 150658Z 25006KT 22/06 A2977 RMK A01 T02170061  RH  036%=      5-min Rain = 0
KBY1 150659Z 24008KT 22/06 A2977 RMK A01 T02160058  RH  036%=      5-min Rain = 0
KBY1 150700Z 25005KT 22/06 A2977 RMK A01 T02160057  RH  035%=      5-min Rain = 0
KBY1 150701Z 25004KT 22/06 A2977 RMK A01 T02170058  RH  036%=      5-min Rain = 0
KBY1 150702Z 26004KT 22/06 A2977 RMK A01 T02160061  RH  037%=      5-min Rain = 0
KBY1 150703Z 25004KT 22/06 A2977 RMK A01 T02150061  RH  037%=      5-min Rain = 0
KBY1 150704Z 25005KT 21/06 A2977 RMK A01 T02140062  RH  037%=      5-min Rain = 0
KBY1 150705Z 25007KT 21/06 A2977 RMK A01 T02130062  RH  038%=      5-min Rain = 0
KBY1 150706Z 26008KT 21/06 A2977 RMK A01 T02120058  RH  037%=      5-min Rain = 0
KBY1 150707Z 25007KT 21/06 A2977 RMK A01 T02130058  RH  036%=      5-min Rain = 0
KBY1 150708Z 24008KT 21/06 A2977 RMK A01 T02130059  RH  037%=      5-min Rain = 0
KBY1 150709Z 24008KT 21/06 A2977 RMK A01 T02130058  RH  036%=      5-min Rain = 0
KBY1 150710Z 24006KT 21/06 A2977 RMK A01 T02130060  RH  037%=      5-min Rain = 0
KBY1 150711Z 25006KT 21/06 A2977 RMK A01 T02110062  RH  038%=      5-min Rain = 0
KBY1 150712Z 25007KT 21/06 A2977 RMK A01 T02100062  RH  038%=      5-min Rain = 0
KBY1 150713Z 25006KT 21/06 A2977 RMK A01 T02090060  RH  038%=      5-min Rain = 0
KBY1 150714Z 24006KT 21/06 A2977 RMK A01 T02090061  RH  038%=      5-min Rain = 0
KBY1 150715Z 23006KT 21/06 A2977 RMK A01 T02090062  RH  038%=      5-min Rain = 0
KBY1 150716Z 23007KT 21/07 A2977 RMK A01 T02080065  RH  039%=      5-min Rain = 0
KBY1 150717Z 23005KT 21/07 A2977 RMK A01 T02060066  RH  040%=      5-min Rain = 0
KBY1 150718Z 24005KT 20/07 A2977 RMK A01 T02040067  RH  041%=      5-min Rain = 0
KBY1 150719Z 26006KT 20/07 A2977 RMK A01 T02030068  RH  041%=      5-min Rain = 0
KBY1 150720Z 26006KT 20/08 A2978 RMK A01 T02020078  RH  045%=      5-min Rain = 0
KBY1 150721Z 26008KT 20/08 A2978 RMK A01 T02020083  RH  046%=      5-min Rain = 0
KBY1 150722Z 27008KT 20/09 A2978 RMK A01 T02020088  RH  048%=      5-min Rain = 0
KBY1 150723Z 27007KT 20/09 A2978 RMK A01 T02020094  RH  050%=      5-min Rain = 0
KBY1 150724Z 26008KT 20/10 A2977 RMK A01 T02030098  RH  051%=      5-min Rain = 0
KBY1 150725Z 27007KT 20/10 A2977 RMK A01 T02020101  RH  052%=      5-min Rain = 0
KBY1 150726Z 26007KT 20/11 A2977 RMK A01 T02010105  RH  054%=      5-min Rain = 0
KBY1 150727Z 26006KT 20/11 A2977 RMK A01 T02010106  RH  054%=      5-min Rain = 0
KBY1 150728Z 25006KT 20/11 A2977 RMK A01 T02000109  RH  056%=      5-min Rain = 0
KBY1 150729Z 25006KT 20/11 A2977 RMK A01 T01980111  RH  057%=      5-min Rain = 0
KBY1 150730Z 24006KT 20/11 A2977 RMK A01 T01960112  RH  058%=      5-min Rain = 0
KBY1 150731Z 25008KT 20/11 A2977 RMK A01 T01950113  RH  059%=      5-min Rain = 0
KBY1 150732Z 25006KT 20/12 A2977 RMK A01 T01950115  RH  060%=      5-min Rain = 0
KBY1 150733Z 26005KT 20/12 A2977 RMK A01 T01950116  RH  060%=      5-min Rain = 0
KBY1 150734Z 26006KT 19/12 A2977 RMK A01 T01940117  RH  061%=      5-min Rain = 0
KBY1 150735Z 26007KT 19/12 A2977 RMK A01 T01940117  RH  061%=      5-min Rain = 0
KBY1 150736Z 26006KT 19/12 A2977 RMK A01 T01940118  RH  062%=      5-min Rain = 0
KBY1 150737Z 26006KT 19/12 A2977 RMK A01 T01940120  RH  062%=      5-min Rain = 0
KBY1 150738Z 26005KT 19/12 A2977 RMK A01 T01930121  RH  063%=      5-min Rain = 0
KBY1 150739Z 26005KT 19/12 A2977 RMK A01 T01930122  RH  064%=      5-min Rain = 0
KBY1 150740Z 24005KT 19/12 A2977 RMK A01 T01920123  RH  064%=      5-min Rain = 0
KBY1 150741Z 24005KT 19/12 A2977 RMK A01 T01910123  RH  065%=      5-min Rain = 0
KBY1 150742Z 23005KT 19/12 A2977 RMK A01 T01910124  RH  065%=      5-min Rain = 0
KBY1 150743Z 22005KT 19/12 A2977 RMK A01 T01900124  RH  065%=      5-min Rain = 0
KBY1 150744Z 22004KT 19/12 A2977 RMK A01 T01890124  RH  066%=      5-min Rain = 0
KBY1 150745Z 23004KT 19/12 A2977 RMK A01 T01870124  RH  067%=      5-min Rain = 0
KBY1 150746Z 21003KT 19/12 A2977 RMK A01 T01850124  RH  067%=      5-min Rain = 0
KBY1 150747Z 21003KT 18/12 A2977 RMK A01 T01840124  RH  068%=      5-min Rain = 0
KBY1 150748Z 21003KT 18/13 A2977 RMK A01 T01830126  RH  069%=      5-min Rain = 0
KBY1 150749Z 23003KT 18/13 A2978 RMK A01 T01810125  RH  070%=      5-min Rain = 0
KBY1 150750Z 25002KT 18/13 A2978 RMK A01 T01800126  RH  071%=      5-min Rain = 0
KBY1 150751Z 24003KT 18/13 A2978 RMK A01 T01800127  RH  071%=      5-min Rain = 0
KBY1 150752Z 23003KT 18/13 A2978 RMK A01 T01800127  RH  071%=      5-min Rain = 0
KBY1 150753Z 23004KT 18/13 A2978 RMK A01 T01800126  RH  071%=      5-min Rain = 0
KBY1 150754Z 24004KT 18/13 A2978 RMK A01 T01800128  RH  072%=      5-min Rain = 0
KBY1 150755Z 24005KT 18/13 A2978 RMK A01 T01780128  RH  073%=      5-min Rain = 0
KBY1 150756Z 23005KT 18/13 A2978 RMK A01 T01780128  RH  072%=      5-min Rain = 0
KBY1 150757Z 23005KT 18/13 A2978 RMK A01 T01780128  RH  072%=      5-min Rain = 0
KBY1 150758Z 23005KT 18/13 A2978 RMK A01 T01770128  RH  073%=      5-min Rain = 0
KBY1 150759Z 24005KT 18/13 A2978 RMK A01 T01760128  RH  073%=      5-min Rain = 0
KBY1 150800Z 24006KT 18/13 A2978 RMK A01 T01760129  RH  074%=      5-min Rain = 0
KBY1 150801Z 24007KT 18/13 A2978 RMK A01 T01750129  RH  074%=      5-min Rain = 0
KBY1 150802Z 24007KT 18/13 A2978 RMK A01 T01750129  RH  074%=      5-min Rain = 0
KBY1 150803Z 25007KT 18/13 A2978 RMK A01 T01750129  RH  074%=      5-min Rain = 0
KBY1 150804Z 24007KT 18/13 A2978 RMK A01 T01760129  RH  074%=      5-min Rain = 0
KBY1 150805Z 24008KT 18/13 A2978 RMK A01 T01770129  RH  074%=      5-min Rain = 0
KBY1 150806Z 25007KT 18/13 A2978 RMK A01 T01770129  RH  073%=      5-min Rain = 0
KBY1 150807Z 24007KT 18/13 A2978 RMK A01 T01780130  RH  073%=      5-min Rain = 0
KBY1 150808Z 25007KT 18/13 A2978 RMK A01 T01780129  RH  073%=      5-min Rain = 0
KBY1 150809Z 26007KT 18/13 A2978 RMK A01 T01790130  RH  073%=      5-min Rain = 0
KBY1 150810Z 26007KT 18/13 A2978 RMK A01 T01800130  RH  072%=      5-min Rain = 0
KBY1 150811Z 26008KT 18/13 A2977 RMK A01 T01820129  RH  071%=      5-min Rain = 0
KBY1 150812Z 26008KT 18/13 A2977 RMK A01 T01840129  RH  070%=      5-min Rain = 0
KBY1 150813Z 26008KT 19/13 A2978 RMK A01 T01850129  RH  070%=      5-min Rain = 0
KBY1 150814Z 26008KT 19/13 A2977 RMK A01 T01850129  RH  070%=      5-min Rain = 0
KBY1 150815Z 26008KT 19/13 A2978 RMK A01 T01860129  RH  069%=      5-min Rain = 0
KBY1 150816Z 26007KT 19/13 A2978 RMK A01 T01860129  RH  070%=      5-min Rain = 0
KBY1 150817Z 26007KT 19/13 A2978 RMK A01 T01850129  RH  069%=      5-min Rain = 0
KBY1 150818Z 26008KT 19/13 A2978 RMK A01 T01850128  RH  069%=      5-min Rain = 0
KBY1 150819Z 27007KT 19/13 A2978 RMK A01 T01850129  RH  069%=      5-min Rain = 0
KBY1 150820Z 28007KT 19/13 A2977 RMK A01 T01850129  RH  070%=      5-min Rain = 0
KBY1 150821Z 28005KT 19/13 A2977 RMK A01 T01850129  RH  070%=      5-min Rain = 0
KBY1 150822Z 28005KT 18/13 A2977 RMK A01 T01840129  RH  071%=      5-min Rain = 0
KBY1 150823Z 28006KT 18/13 A2977 RMK A01 T01820128  RH  071%=      5-min Rain = 0
KBY1 150824Z 28005KT 18/13 A2977 RMK A01 T01820129  RH  071%=      5-min Rain = 0
KBY1 150825Z 28007KT 18/13 A2977 RMK A01 T01810128  RH  071%=      5-min Rain = 0
KBY1 150826Z 28007KT 18/13 A2978 RMK A01 T01810128  RH  071%=      5-min Rain = 0
KBY1 150827Z 28008KT 18/13 A2978 RMK A01 T01800128  RH  071%=      5-min Rain = 0
KBY1 150828Z 27008KT 18/13 A2978 RMK A01 T01800128  RH  071%=      5-min Rain = 0
KBY1 150829Z 28006KT 18/13 A2977 RMK A01 T01800127  RH  071%=      5-min Rain = 0
KBY1 150830Z 27008KT 18/13 A2977 RMK A01 T01800127  RH  071%=      5-min Rain = 0
KBY1 150831Z 27009KT 18/13 A2977 RMK A01 T01800127  RH  071%=      5-min Rain = 0
KBY1 150832Z 27007KT 18/13 A2977 RMK A01 T01800127  RH  071%=      5-min Rain = 0
KBY1 150833Z 27007KT 18/13 A2977 RMK A01 T01800128  RH  071%=      5-min Rain = 0
KBY1 150834Z 27008KT 18/13 A2978 RMK A01 T01790127  RH  072%=      5-min Rain = 0
KBY1 150835Z 27008KT 18/13 A2978 RMK A01 T01780128  RH  072%=      5-min Rain = 0
KBY1 150836Z 27008KT 18/13 A2978 RMK A01 T01770128  RH  073%=      5-min Rain = 0
KBY1 150837Z 27008KT 18/13 A2978 RMK A01 T01760129  RH  074%=      5-min Rain = 0
KBY1 150838Z 27008KT 18/13 A2978 RMK A01 T01750129  RH  074%=      5-min Rain = 0
KBY1 150839Z 27007KT 17/13 A2978 RMK A01 T01740130  RH  075%=      5-min Rain = 0
KBY1 150840Z 28007KT 17/13 A2978 RMK A01 T01730130  RH  076%=      5-min Rain = 0
KBY1 150841Z 27007KT 17/13 A2978 RMK A01 T01720131  RH  077%=      5-min Rain = 0
KBY1 150842Z 28007KT 17/13 A2978 RMK A01 T01710131  RH  078%=      5-min Rain = 0
KBY1 150843Z 28006KT 17/13 A2978 RMK A01 T01700132  RH  078%=      5-min Rain = 0
KBY1 150844Z 29008KT 17/13 A2978 RMK A01 T01690133  RH  079%=      5-min Rain = 0
KBY1 150845Z 29007KT 17/13 A2978 RMK A01 T01690133  RH  079%=      5-min Rain = 0
KBY1 150846Z 28008KT 17/13 A2978 RMK A01 T01680133  RH  080%=      5-min Rain = 0
KBY1 150847Z 28008KT 17/13 A2978 RMK A01 T01670134  RH  081%=      5-min Rain = 0
KBY1 150848Z 28009KT 17/14 A2978 RMK A01 T01660135  RH  082%=      5-min Rain = 0
KBY1 150849Z 28009KT 17/14 A2978 RMK A01 T01660135  RH  082%=      5-min Rain = 0
KBY1 150850Z 29009G14KT 17/14 A2978 RMK A01 T01660136  RH  082%=      5-min Rain = 0
KBY1 150851Z 29010KT 17/14 A2978 RMK A01 T01660137  RH  083%=      5-min Rain = 0
KBY1 150852Z 29009KT 17/14 A2978 RMK A01 T01660137  RH  083%=      5-min Rain = 0
KBY1 150853Z 29010KT 17/14 A2978 RMK A01 T01650138  RH  084%=      5-min Rain = 0
KBY1 150854Z 29011KT 17/14 A2978 RMK A01 T01650139  RH  084%=      5-min Rain = 0
KBY1 150855Z 29008G13KT 16/14 A2978 RMK A01 T01640139  RH  085%=      5-min Rain = 0
KBY1 150856Z 29009KT 16/14 A2978 RMK A01 T01640139  RH  086%=      5-min Rain = 0
KBY1 150857Z 29008KT 16/14 A2978 RMK A01 T01640140  RH  086%=      5-min Rain = 0
KBY1 150858Z 28007KT 16/14 A2978 RMK A01 T01630140  RH  086%=      5-min Rain = 0
KBY1 150859Z 29008KT 16/14 A2979 RMK A01 T01620140  RH  087%=      5-min Rain = 0
KBY1 150900Z 29008KT 16/14 A2979 RMK A01 T01610141  RH  087%=      5-min Rain = 0
KBY1 150901Z 30007KT 16/14 A2979 RMK A01 T01610141  RH  088%=      5-min Rain = 0
KBY1 150902Z 30007KT 16/14 A2979 RMK A01 T01610141  RH  088%=      5-min Rain = 0
KBY1 150903Z 30006KT 16/14 A2979 RMK A01 T01600141  RH  088%=      5-min Rain = 0
KBY1 150904Z 30005KT 16/14 A2979 RMK A01 T01600141  RH  089%=      5-min Rain = 0
KBY1 150905Z 28006KT 16/14 A2979 RMK A01 T01600142  RH  089%=      5-min Rain = 0
KBY1 150906Z 29005KT 16/14 A2978 RMK A01 T01590141  RH  089%=      5-min Rain = 0
KBY1 150907Z 27004KT 16/14 A2978 RMK A01 T01590141  RH  089%=      5-min Rain = 0
KBY1 150908Z 28004KT 16/14 A2978 RMK A01 T01590141  RH  089%=      5-min Rain = 0
KBY1 150909Z 29007KT 16/14 A2978 RMK A01 T01590141  RH  089%=      5-min Rain = 0
KBY1 150910Z 29006KT 16/14 A2978 RMK A01 T01590141  RH  089%=      5-min Rain = 0
KBY1 150911Z 28006KT 16/14 A2978 RMK A01 T01580141  RH  089%=      5-min Rain = 0
KBY1 150912Z 29006KT 16/14 A2978 RMK A01 T01590141  RH  089%=      5-min Rain = 0
KBY1 150913Z 29006KT 16/14 A2978 RMK A01 T01580141  RH  089%=      5-min Rain = 0
KBY1 150914Z 28008KT 16/14 A2979 RMK A01 T01580140  RH  089%=      5-min Rain = 0
KBY1 150915Z 28007KT 16/14 A2979 RMK A01 T01580140  RH  089%=      5-min Rain = 0
KBY1 150916Z 29008KT 16/14 A2979 RMK A01 T01580140  RH  089%=      5-min Rain = 0
KBY1 150917Z 28005G10KT 16/14 A2979 RMK A01 T01590140  RH  089%=      5-min Rain = 0
KBY1 150918Z 28007KT 16/14 A2979 RMK A01 T01590140  RH  089%=      5-min Rain = 0
KBY1 150919Z 28006KT 16/14 A2979 RMK A01 T01590140  RH  089%=      5-min Rain = 0
KBY1 150920Z 29007KT 16/14 A2979 RMK A01 T01580140  RH  089%=      5-min Rain = 0
KBY1 150921Z 26005KT 16/14 A2979 RMK A01 T01580140  RH  089%=      5-min Rain = 0
KBY1 150922Z 27005G10KT 16/14 A2979 RMK A01 T01580140  RH  089%=      5-min Rain = 0
KBY1 150923Z 27005KT 16/14 A2979 RMK A01 T01570140  RH  089%=      5-min Rain = 0
KBY1 150924Z 28004KT 16/14 A298 RMK A01 T01570139  RH  089%=      5-min Rain = 0
KBY1 150925Z 28004KT 16/14 A298 RMK A01 T01570140  RH  090%=      5-min Rain = 0
KBY1 150926Z 29006KT 16/14 A298 RMK A01 T01560139  RH  090%=      5-min Rain = 0
KBY1 150927Z 28005KT 16/14 A298 RMK A01 T01560139  RH  090%=      5-min Rain = 0
KBY1 150928Z 28006KT 16/14 A298 RMK A01 T01560139  RH  089%=      5-min Rain = 0
KBY1 150929Z 27005KT 16/14 A298 RMK A01 T01560139  RH  089%=      5-min Rain = 0
KBY1 150930Z 29003KT 16/14 A298 RMK A01 T01560139  RH  089%=      5-min Rain = 0
KBY1 150931Z 28004KT 16/14 A298 RMK A01 T01550139  RH  090%=      5-min Rain = 0
KBY1 150932Z 29003KT 16/14 A298 RMK A01 T01550138  RH  090%=      5-min Rain = 0
KBY1 150933Z 27002KT 16/14 A298 RMK A01 T01550139  RH  090%=      5-min Rain = 0
KBY1 150934Z 24003KT 15/14 A298 RMK A01 T01540138  RH  090%=      5-min Rain = 0
KBY1 150935Z 25003KT 15/14 A298 RMK A01 T01540138  RH  090%=      5-min Rain = 0
KBY1 150936Z 23003KT 15/14 A298 RMK A01 T01530138  RH  091%=      5-min Rain = 0
KBY1 150937Z 24003KT 15/14 A298 RMK A01 T01520137  RH  091%=      5-min Rain = 0
KBY1 150938Z 24003KT 15/14 A298 RMK A01 T01520137  RH  091%=      5-min Rain = 0
KBY1 150939Z 24003KT 15/14 A298 RMK A01 T01520138  RH  092%=      5-min Rain = 0
KBY1 150940Z 26002KT 15/14 A298 RMK A01 T01510137  RH  092%=      5-min Rain = 0
KBY1 150941Z 25003KT 15/14 A298 RMK A01 T01500138  RH  092%=      5-min Rain = 0
KBY1 150942Z 25003KT 15/14 A298 RMK A01 T01500137  RH  092%=      5-min Rain = 0
KBY1 150943Z 26003KT 15/14 A298 RMK A01 T01500138  RH  092%=      5-min Rain = 0
KBY1 150944Z 26002KT 15/14 A298 RMK A01 T01500138  RH  092%=      5-min Rain = 0
KBY1 150945Z 28002KT 15/14 A298 RMK A01 T01500138  RH  092%=      5-min Rain = 0
KBY1 150946Z 27002KT 15/14 A298 RMK A01 T01490137  RH  092%=      5-min Rain = 0
KBY1 150947Z 26002KT 15/14 A2981 RMK A01 T01490138  RH  093%=      5-min Rain = 0
KBY1 150948Z 26002KT 15/14 A2981 RMK A01 T01490138  RH  093%=      5-min Rain = 0
KBY1 150949Z 25003KT 15/14 A2981 RMK A01 T01490137  RH  093%=      5-min Rain = 0
KBY1 150950Z 25003KT 15/14 A2981 RMK A01 T01490137  RH  093%=      5-min Rain = 0
KBY1 150951Z 27002KT 15/14 A2981 RMK A01 T01490136  RH  092%=      5-min Rain = 0
KBY1 150952Z 27002KT 15/14 A2981 RMK A01 T01490137  RH  093%=      5-min Rain = 0
KBY1 150953Z 29002KT 15/14 A2981 RMK A01 T01490137  RH  093%=      5-min Rain = 0
KBY1 150954Z 28003KT 15/14 A2981 RMK A01 T01490137  RH  093%=      5-min Rain = 0
KBY1 150955Z 28004KT 15/14 A2981 RMK A01 T01490137  RH  093%=      5-min Rain = 0
KBY1 150956Z 29005KT 15/14 A2981 RMK A01 T01500138  RH  092%=      5-min Rain = 0
KBY1 150957Z 28005KT 15/14 A2981 RMK A01 T01510137  RH  092%=      5-min Rain = 0
KBY1 150958Z 28006KT 15/14 A2981 RMK A01 T01520138  RH  091%=      5-min Rain = 0
KBY1 150959Z 28006KT 15/14 A298 RMK A01 T01520137  RH  091%=      5-min Rain = 0
KBY1 151000Z 28006KT 15/14 A298 RMK A01 T01530137  RH  090%=      5-min Rain = 0
KBY1 151001Z 28005KT 15/14 A298 RMK A01 T01530137  RH  090%=      5-min Rain = 0
KBY1 151002Z 28006KT 15/14 A298 RMK A01 T01530136  RH  090%=      5-min Rain = 0
KBY1 151003Z 29006KT 15/14 A298 RMK A01 T01530136  RH  090%=      5-min Rain = 0
KBY1 151004Z 29007KT 15/14 A298 RMK A01 T01530137  RH  090%=      5-min Rain = 0
KBY1 151005Z 29006KT 15/14 A298 RMK A01 T01530136  RH  090%=      5-min Rain = 0
KBY1 151006Z 29005KT 15/14 A298 RMK A01 T01530136  RH  090%=      5-min Rain = 0
KBY1 151007Z 29006KT 15/14 A298 RMK A01 T01530136  RH  090%=      5-min Rain = 0
KBY1 151008Z 29006KT 15/14 A298 RMK A01 T01530136  RH  090%=      5-min Rain = 0
KBY1 151009Z 29006KT 15/14 A298 RMK A01 T01520136  RH  090%=      5-min Rain = 0
KBY1 151010Z 29006KT 15/14 A298 RMK A01 T01520136  RH  090%=      5-min Rain = 0
KBY1 151011Z 29006KT 15/14 A298 RMK A01 T01520136  RH  090%=      5-min Rain = 0
KBY1 151012Z 29007KT 15/14 A298 RMK A01 T01510136  RH  091%=      5-min Rain = 0
KBY1 151013Z 29006KT 15/14 A298 RMK A01 T01510136  RH  091%=      5-min Rain = 0
KBY1 151014Z 29007KT 15/14 A2981 RMK A01 T01500136  RH  091%=      5-min Rain = 0
KBY1 151015Z 29007KT 15/14 A2981 RMK A01 T01500136  RH  091%=      5-min Rain = 0
KBY1 151016Z 29008KT 15/14 A2981 RMK A01 T01500136  RH  091%=      5-min Rain = 0
KBY1 151017Z 30007KT 15/14 A2981 RMK A01 T01500136  RH  091%=      5-min Rain = 0
KBY1 151018Z 29006KT 15/14 A2981 RMK A01 T01500136  RH  091%=      5-min Rain = 0
KBY1 151019Z 30006KT 15/14 A2981 RMK A01 T01500136  RH  091%=      5-min Rain = 0
KBY1 151020Z 29007KT 15/14 A2981 RMK A01 T01510136  RH  091%=      5-min Rain = 0
KBY1 151021Z 30006KT 15/14 A2981 RMK A01 T01500136  RH  091%=      5-min Rain = 0
KBY1 151022Z 29007KT 15/14 A2981 RMK A01 T01500136  RH  091%=      5-min Rain = 0
KBY1 151023Z 29007KT 15/14 A2981 RMK A01 T01490136  RH  092%=      5-min Rain = 0
KBY1 151024Z 29006KT 15/14 A2981 RMK A01 T01490136  RH  092%=      5-min Rain = 0
KBY1 151025Z 29006KT 15/14 A2981 RMK A01 T01490135  RH  092%=      5-min Rain = 0
KBY1 151026Z 29006KT 15/14 A2981 RMK A01 T01490135  RH  092%=      5-min Rain = 0
KBY1 151027Z 29007KT 15/14 A2981 RMK A01 T01480135  RH  092%=      5-min Rain = 0
KBY1 151028Z 29006KT 15/14 A2981 RMK A01 T01480135  RH  092%=      5-min Rain = 0
KBY1 151029Z 29007KT 15/14 A2981 RMK A01 T01480135  RH  092%=      5-min Rain = 0
KBY1 151030Z 28005KT 15/14 A2981 RMK A01 T01490135  RH  092%=      5-min Rain = 0
KBY1 151031Z 30003KT 15/14 A2981 RMK A01 T01480135  RH  092%=      5-min Rain = 0
KBY1 151032Z 29004KT 15/14 A2981 RMK A01 T01480135  RH  092%=      5-min Rain = 0
KBY1 151033Z 28005KT 15/14 A2981 RMK A01 T01480135  RH  092%=      5-min Rain = 0
KBY1 151034Z 27004KT 15/13 A2981 RMK A01 T01470134  RH  092%=      5-min Rain = 0
KBY1 151035Z 28005KT 15/13 A2981 RMK A01 T01470134  RH  092%=      5-min Rain = 0
KBY1 151036Z 28005KT 15/13 A2981 RMK A01 T01460134  RH  092%=      5-min Rain = 0
KBY1 151037Z 28005KT 15/14 A2981 RMK A01 T01460135  RH  093%=      5-min Rain = 0
KBY1 151038Z 27005KT 15/13 A2981 RMK A01 T01460134  RH  093%=      5-min Rain = 0
KBY1 151039Z 27005KT 15/13 A2981 RMK A01 T01460134  RH  093%=      5-min Rain = 0
KBY1 151040Z 27006KT 15/13 A2981 RMK A01 T01460134  RH  093%=      5-min Rain = 0
KBY1 151041Z 26006KT 15/13 A2981 RMK A01 T01460134  RH  093%=      5-min Rain = 0
KBY1 151042Z 27005KT 15/13 A2981 RMK A01 T01450134  RH  093%=      5-min Rain = 0
KBY1 151043Z 27005KT 15/13 A2981 RMK A01 T01450134  RH  093%=      5-min Rain = 0
KBY1 151044Z 27005KT 15/13 A2981 RMK A01 T01450134  RH  093%=      5-min Rain = 0
KBY1 151045Z 28005KT 15/13 A2981 RMK A01 T01450134  RH  093%=      5-min Rain = 0
KBY1 151046Z 29007KT 15/13 A2982 RMK A01 T01450134  RH  093%=      5-min Rain = 0
KBY1 151047Z 29007KT 15/13 A2982 RMK A01 T01450134  RH  093%=      5-min Rain = 0
KBY1 151048Z 28007KT 15/13 A2982 RMK A01 T01450134  RH  093%=      5-min Rain = 0
KBY1 151049Z 28006KT 15/13 A2982 RMK A01 T01450134  RH  093%=      5-min Rain = 0
KBY1 151050Z 27005KT 15/13 A2982 RMK A01 T01460134  RH  093%=      5-min Rain = 0
KBY1 151051Z 28005KT 15/13 A2982 RMK A01 T01450133  RH  092%=      5-min Rain = 0
KBY1 151052Z 28006KT 15/13 A2982 RMK A01 T01450133  RH  093%=      5-min Rain = 0
KBY1 151053Z 29006KT 15/13 A2982 RMK A01 T01450133  RH  093%=      5-min Rain = 0
KBY1 151054Z 28006KT 15/13 A2982 RMK A01 T01450134  RH  093%=      5-min Rain = 0
KBY1 151055Z 28006KT 15/13 A2982 RMK A01 T01450134  RH  093%=      5-min Rain = 0
KBY1 151056Z 28006KT 14/13 A2982 RMK A01 T01440133  RH  093%=      5-min Rain = 0
KBY1 151057Z 27007KT 14/13 A2982 RMK A01 T01440133  RH  093%=      5-min Rain = 0
KBY1 151058Z 27006KT 14/13 A2982 RMK A01 T01440133  RH  093%=      5-min Rain = 0
KBY1 151059Z 26006KT 14/13 A2982 RMK A01 T01440133  RH  093%=      5-min Rain = 0
KBY1 151100Z 26005KT 14/13 A2982 RMK A01 T01430133  RH  093%=      5-min Rain = 0
KBY1 151101Z 26005KT 14/13 A2982 RMK A01 T01430133  RH  093%=      5-min Rain = 0
KBY1 151102Z 26004KT 14/13 A2982 RMK A01 T01430133  RH  094%=      5-min Rain = 0
KBY1 151103Z 27004KT 14/13 A2982 RMK A01 T01420133  RH  094%=      5-min Rain = 0
KBY1 151104Z 27004KT 14/13 A2982 RMK A01 T01420133  RH  094%=      5-min Rain = 0
KBY1 151105Z 27005KT 14/13 A2983 RMK A01 T01420133  RH  094%=      5-min Rain = 0
KBY1 151106Z 27006KT 14/13 A2983 RMK A01 T01420133  RH  094%=      5-min Rain = 0
KBY1 151107Z 27006KT 14/13 A2983 RMK A01 T01420133  RH  094%=      5-min Rain = 0
KBY1 151108Z 27006KT 14/13 A2983 RMK A01 T01420133  RH  094%=      5-min Rain = 0
KBY1 151109Z 27006KT 14/13 A2983 RMK A01 T01420133  RH  094%=      5-min Rain = 0
KBY1 151110Z 27007KT 14/13 A2983 RMK A01 T01410133  RH  094%=      5-min Rain = 0
KBY1 151111Z 27006KT 14/13 A2983 RMK A01 T01410133  RH  095%=      5-min Rain = 0
KBY1 151112Z 26005KT 14/13 A2983 RMK A01 T01410133  RH  095%=      5-min Rain = 0
KBY1 151113Z 26003KT 14/13 A2983 RMK A01 T01410133  RH  095%=      5-min Rain = 0
KBY1 151114Z 26005KT 14/13 A2983 RMK A01 T01410133  RH  095%=      5-min Rain = 0
KBY1 151115Z 26005KT 14/13 A2983 RMK A01 T01400133  RH  095%=      5-min Rain = 0
KBY1 151116Z 26005KT 14/13 A2983 RMK A01 T01400133  RH  095%=      5-min Rain = 0
KBY1 151117Z 27006KT 14/13 A2983 RMK A01 T01410133  RH  095%=      5-min Rain = 0
KBY1 151118Z 26007KT 14/13 A2983 RMK A01 T01400133  RH  095%=      5-min Rain = 0
KBY1 151119Z 27008KT 14/13 A2983 RMK A01 T01410134  RH  095%=      5-min Rain = 0
KBY1 151120Z 27009KT 14/13 A2984 RMK A01 T01420134  RH  095%=      5-min Rain = 0
KBY1 151121Z 27008KT 14/13 A2984 RMK A01 T01430134  RH  094%=      5-min Rain = 0
KBY1 151122Z 27008KT 14/13 A2984 RMK A01 T01430134  RH  094%=      5-min Rain = 0
KBY1 151123Z 27009KT 14/13 A2984 RMK A01 T01440133  RH  093%=      5-min Rain = 0
KBY1 151124Z 27009KT 15/13 A2984 RMK A01 T01450133  RH  093%=      5-min Rain = 0
KBY1 151125Z 27007KT 15/13 A2984 RMK A01 T01450133  RH  092%=      5-min Rain = 0
KBY1 151126Z 27007KT 15/13 A2984 RMK A01 T01450132  RH  092%=      5-min Rain = 0
KBY1 151127Z 27007KT 15/13 A2984 RMK A01 T01450132  RH  092%=      5-min Rain = 0
KBY1 151128Z 27006KT 15/13 A2984 RMK A01 T01450132  RH  092%=      5-min Rain = 0
KBY1 151129Z 27007KT 15/13 A2984 RMK A01 T01450132  RH  092%=      5-min Rain = 0
KBY1 151130Z 27006KT 15/13 A2984 RMK A01 T01450132  RH  092%=      5-min Rain = 0
KBY1 151131Z 26006KT 15/13 A2984 RMK A01 T01450132  RH  092%=      5-min Rain = 0
KBY1 151132Z 27006KT 15/13 A2984 RMK A01 T01450133  RH  092%=      5-min Rain = 0
KBY1 151133Z 28004KT 15/13 A2984 RMK A01 T01450132  RH  092%=      5-min Rain = 0
KBY1 151134Z 29006KT 15/13 A2985 RMK A01 T01450132  RH  092%=      5-min Rain = 0
KBY1 151135Z 28005KT 15/13 A2984 RMK A01 T01460133  RH  092%=      5-min Rain = 0
KBY1 151136Z 26004KT 15/13 A2984 RMK A01 T01460132  RH  091%=      5-min Rain = 0
KBY1 151137Z 26007KT 15/13 A2984 RMK A01 T01460132  RH  091%=      5-min Rain = 0
KBY1 151138Z 27005KT 15/13 A2984 RMK A01 T01460132  RH  091%=      5-min Rain = 0
KBY1 151139Z 26003KT 15/13 A2984 RMK A01 T01460132  RH  091%=      5-min Rain = 0
KBY1 151140Z 27004KT 15/13 A2984 RMK A01 T01460132  RH  091%=      5-min Rain = 0
KBY1 151141Z 28003KT 15/13 A2985 RMK A01 T01460132  RH  092%=      5-min Rain = 0
KBY1 151142Z 28002KT 15/13 A2985 RMK A01 T01450132  RH  092%=      5-min Rain = 0
KBY1 151143Z 27003KT 15/13 A2985 RMK A01 T01450132  RH  092%=      5-min Rain = 0
KBY1 151144Z 25001KT 15/13 A2985 RMK A01 T01450132  RH  092%=      5-min Rain = 0
KBY1 151145Z 27002KT 15/13 A2984 RMK A01 T01450132  RH  091%=      5-min Rain = 0
KBY1 151146Z 25002KT 15/13 A2985 RMK A01 T01450131  RH  091%=      5-min Rain = 0
KBY1 151147Z 24000KT 15/13 A2985 RMK A01 T01450131  RH  091%=      5-min Rain = 0
KBY1 151148Z 27001KT 15/13 A2985 RMK A01 T01450132  RH  091%=      5-min Rain = 0
KBY1 151149Z 28001KT 15/13 A2985 RMK A01 T01450131  RH  091%=      5-min Rain = 0
KBY1 151150Z 24001KT 15/13 A2985 RMK A01 T01450132  RH  092%=      5-min Rain = 0
KBY1 151151Z 24002KT 15/13 A2985 RMK A01 T01450132  RH  091%=      5-min Rain = 0
KBY1 151152Z 26001KT 15/13 A2985 RMK A01 T01450131  RH  091%=      5-min Rain = 0
KBY1 151153Z 25000KT 15/13 A2985 RMK A01 T01450132  RH  092%=      5-min Rain = 0
KBY1 151154Z 26000KT 15/13 A2984 RMK A01 T01450132  RH  092%=      5-min Rain = 0
KBY1 151155Z 26001KT 15/13 A2984 RMK A01 T01450132  RH  092%=      5-min Rain = 0
KBY1 151156Z 26002KT 15/13 A2984 RMK A01 T01450132  RH  092%=      5-min Rain = 0
KBY1 151157Z 29003KT 14/13 A2984 RMK A01 T01440132  RH  092%=      5-min Rain = 0
KBY1 151158Z 30003KT 14/13 A2984 RMK A01 T01440132  RH  092%=      5-min Rain = 0
KBY1 151159Z 30005KT 14/13 A2984 RMK A01 T01440132  RH  092%=      5-min Rain = 0
KBY1 151200Z 30006KT 15/13 A2985 RMK A01 T01450132  RH  092%=      5-min Rain = 0
KBY1 151201Z 30005KT 14/13 A2985 RMK A01 T01440132  RH  092%=      5-min Rain = 0
KBY1 151202Z 29004KT 14/13 A2985 RMK A01 T01440132  RH  092%=      5-min Rain = 0
KBY1 151203Z 28004KT 15/13 A2984 RMK A01 T01450132  RH  092%=      5-min Rain = 0
KBY1 151204Z 28003KT 15/13 A2984 RMK A01 T01460132  RH  091%=      5-min Rain = 0
KBY1 151205Z 27004KT 15/13 A2984 RMK A01 T01460132  RH  091%=      5-min Rain = 0
KBY1 151206Z 27003KT 15/13 A2984 RMK A01 T01460131  RH  091%=      5-min Rain = 0
KBY1 151207Z 28003KT 15/13 A2984 RMK A01 T01470132  RH  091%=      5-min Rain = 0
KBY1 151208Z 28004KT 15/13 A2984 RMK A01 T01470132  RH  091%=      5-min Rain = 0
KBY1 151209Z 28004KT 15/13 A2985 RMK A01 T01470131  RH  091%=      5-min Rain = 0
KBY1 151210Z 29004KT 15/13 A2985 RMK A01 T01470131  RH  091%=      5-min Rain = 0
KBY1 151211Z 28004KT 15/13 A2985 RMK A01 T01470132  RH  091%=      5-min Rain = 0
KBY1 151212Z 27004KT 15/13 A2985 RMK A01 T01470132  RH  091%=      5-min Rain = 0
KBY1 151213Z 27005KT 15/13 A2985 RMK A01 T01480132  RH  090%=      5-min Rain = 0
KBY1 151214Z 27005KT 15/13 A2985 RMK A01 T01480132  RH  090%=      5-min Rain = 0
KBY1 151215Z 27005KT 15/13 A2985 RMK A01 T01480132  RH  090%=      5-min Rain = 0
KBY1 151216Z 28003KT 15/13 A2985 RMK A01 T01480132  RH  090%=      5-min Rain = 0
KBY1 151217Z 28003KT 15/13 A2985 RMK A01 T01490133  RH  090%=      5-min Rain = 0
KBY1 151218Z 28003KT 15/13 A2985 RMK A01 T01490133  RH  090%=      5-min Rain = 0
KBY1 151219Z 27002KT 15/13 A2985 RMK A01 T01490133  RH  090%=      5-min Rain = 0
KBY1 151220Z 28003KT 15/13 A2985 RMK A01 T01500134  RH  090%=      5-min Rain = 0
KBY1 151221Z 28003KT 15/13 A2985 RMK A01 T01510133  RH  089%=      5-min Rain = 0
KBY1 151222Z 27002KT 15/13 A2985 RMK A01 T01510133  RH  089%=      5-min Rain = 0
KBY1 151223Z 27003KT 15/13 A2985 RMK A01 T01510134  RH  089%=      5-min Rain = 0
KBY1 151224Z 26005KT 15/13 A2985 RMK A01 T01520134  RH  089%=      5-min Rain = 0
KBY1 151225Z 26005KT 15/14 A2986 RMK A01 T01520135  RH  089%=      5-min Rain = 0
KBY1 151226Z 26006KT 15/14 A2986 RMK A01 T01530135  RH  089%=      5-min Rain = 0
KBY1 151227Z 25006KT 15/13 A2986 RMK A01 T01530134  RH  089%=      5-min Rain = 0
KBY1 151228Z 25007KT 15/13 A2986 RMK A01 T01530134  RH  089%=      5-min Rain = 0
KBY1 151229Z 26006KT 15/13 A2986 RMK A01 T01530134  RH  088%=      5-min Rain = 0
KBY1 151230Z 27007KT 15/13 A2986 RMK A01 T01530134  RH  088%=      5-min Rain = 0
KBY1 151231Z 27007KT 15/13 A2986 RMK A01 T01540134  RH  088%=      5-min Rain = 0
KBY1 151232Z 27006KT 15/13 A2986 RMK A01 T01540133  RH  088%=      5-min Rain = 0
KBY1 151233Z 27007KT 15/13 A2985 RMK A01 T01540134  RH  088%=      5-min Rain = 0
KBY1 151234Z 28006KT 16/13 A2985 RMK A01 T01550134  RH  088%=      5-min Rain = 0
KBY1 151235Z 28006KT 16/13 A2986 RMK A01 T01550134  RH  087%=      5-min Rain = 0
KBY1 151236Z 29007KT 16/13 A2986 RMK A01 T01560134  RH  087%=      5-min Rain = 0
KBY1 151237Z 27006KT 16/13 A2986 RMK A01 T01570134  RH  086%=      5-min Rain = 0
KBY1 151238Z 27007KT 16/13 A2985 RMK A01 T01570134  RH  086%=      5-min Rain = 0
KBY1 151239Z 27008KT 16/13 A2985 RMK A01 T01570134  RH  086%=      5-min Rain = 0
KBY1 151240Z 27007KT 16/13 A2986 RMK A01 T01570134  RH  086%=      5-min Rain = 0
KBY1 151241Z 26006KT 16/14 A2986 RMK A01 T01580135  RH  086%=      5-min Rain = 0
KBY1 151242Z 26007KT 16/14 A2986 RMK A01 T01580136  RH  086%=      5-min Rain = 0
KBY1 151243Z 26007KT 16/14 A2986 RMK A01 T01590137  RH  086%=      5-min Rain = 0
KBY1 151244Z 27007KT 16/14 A2986 RMK A01 T01600137  RH  086%=      5-min Rain = 0
KBY1 151245Z 26006KT 16/14 A2986 RMK A01 T01600137  RH  086%=      5-min Rain = 0
KBY1 151246Z 27005KT 16/14 A2986 RMK A01 T01610137  RH  086%=      5-min Rain = 0
KBY1 151247Z 27006KT 16/14 A2986 RMK A01 T01610135  RH  085%=      5-min Rain = 0
KBY1 151248Z 26005KT 16/14 A2986 RMK A01 T01610135  RH  084%=      5-min Rain = 0
KBY1 151249Z 26004KT 16/14 A2986 RMK A01 T01620137  RH  085%=      5-min Rain = 0
KBY1 151250Z 26006KT 16/14 A2986 RMK A01 T01630139  RH  085%=      5-min Rain = 0
KBY1 151251Z 26006KT 16/14 A2986 RMK A01 T01640137  RH  084%=      5-min Rain = 0
KBY1 151252Z 27007KT 17/14 A2986 RMK A01 T01650139  RH  085%=      5-min Rain = 0
KBY1 151253Z 27007KT 17/14 A2986 RMK A01 T01650137  RH  084%=      5-min Rain = 0
KBY1 151254Z 27007KT 17/14 A2986 RMK A01 T01650136  RH  083%=      5-min Rain = 0
KBY1 151255Z 26008KT 17/14 A2986 RMK A01 T01650136  RH  083%=      5-min Rain = 0
KBY1 151256Z 27007KT 17/14 A2986 RMK A01 T01660137  RH  083%=      5-min Rain = 0
KBY1 151257Z 26006KT 17/14 A2986 RMK A01 T01670138  RH  083%=      5-min Rain = 0
KBY1 151258Z 27006KT 17/14 A2986 RMK A01 T01670137  RH  082%=      5-min Rain = 0
KBY1 151259Z 27007KT 17/14 A2986 RMK A01 T01680137  RH  082%=      5-min Rain = 0
KBY1 151300Z 26008KT 17/14 A2986 RMK A01 T01680136  RH  081%=      5-min Rain = 0
KBY1 151301Z 28007KT 17/14 A2986 RMK A01 T01680136  RH  081%=      5-min Rain = 0
KBY1 151302Z 27006KT 17/14 A2986 RMK A01 T01690136  RH  081%=      5-min Rain = 0
KBY1 151303Z 27005KT 17/14 A2986 RMK A01 T01690137  RH  081%=      5-min Rain = 0
KBY1 151304Z 27004KT 17/14 A2986 RMK A01 T01700137  RH  081%=      5-min Rain = 0
KBY1 151305Z 28005KT 17/14 A2986 RMK A01 T01710140  RH  082%=      5-min Rain = 0
KBY1 151306Z 27005KT 17/14 A2986 RMK A01 T01720139  RH  081%=      5-min Rain = 0
KBY1 151307Z 29005KT 17/14 A2986 RMK A01 T01730139  RH  080%=      5-min Rain = 0
KBY1 151308Z 28006KT 17/14 A2986 RMK A01 T01730139  RH  080%=      5-min Rain = 0
KBY1 151309Z 27006KT 17/14 A2986 RMK A01 T01730139  RH  080%=      5-min Rain = 0
KBY1 151310Z 29007KT 17/14 A2986 RMK A01 T01730139  RH  080%=      5-min Rain = 0
KBY1 151311Z 27005KT 17/14 A2986 RMK A01 T01740139  RH  080%=      5-min Rain = 0
KBY1 151312Z 27006KT 17/14 A2986 RMK A01 T01740139  RH  080%=      5-min Rain = 0
KBY1 151313Z 28007KT 18/14 A2986 RMK A01 T01750139  RH  080%=      5-min Rain = 0
KBY1 151314Z 27007KT 18/14 A2986 RMK A01 T01750140  RH  080%=      5-min Rain = 0
KBY1 151315Z 27006KT 18/14 A2987 RMK A01 T01750141  RH  080%=      5-min Rain = 0
KBY1 151316Z 27007KT 18/14 A2987 RMK A01 T01760141  RH  080%=      5-min Rain = 0
KBY1 151317Z 29006KT 18/14 A2987 RMK A01 T01760143  RH  081%=      5-min Rain = 0
KBY1 151318Z 28008KT 18/14 A2987 RMK A01 T01770141  RH  079%=      5-min Rain = 0
KBY1 151319Z 26005KT 18/14 A2987 RMK A01 T01770140  RH  079%=      5-min Rain = 0
KBY1 151320Z 26007KT 18/14 A2987 RMK A01 T01780140  RH  079%=      5-min Rain = 0
KBY1 151321Z 27007KT 18/14 A2987 RMK A01 T01780138  RH  078%=      5-min Rain = 0
KBY1 151322Z 27006KT 18/14 A2987 RMK A01 T01780141  RH  079%=      5-min Rain = 0
KBY1 151323Z 27009KT 18/14 A2987 RMK A01 T01790140  RH  078%=      5-min Rain = 0
KBY1 151324Z 27009KT 18/14 A2987 RMK A01 T01790139  RH  077%=      5-min Rain = 0
KBY1 151325Z 27009KT 18/14 A2987 RMK A01 T01790139  RH  078%=      5-min Rain = 0
KBY1 151326Z 27009KT 18/14 A2987 RMK A01 T01790139  RH  078%=      5-min Rain = 0
KBY1 151327Z 27008KT 18/14 A2987 RMK A01 T01790140  RH  078%=      5-min Rain = 0
KBY1 151328Z 27007KT 18/14 A2987 RMK A01 T01800140  RH  078%=      5-min Rain = 0
KBY1 151329Z 27008KT 18/14 A2987 RMK A01 T01800140  RH  077%=      5-min Rain = 0
KBY1 151330Z 28007KT 18/14 A2987 RMK A01 T01810140  RH  077%=      5-min Rain = 0
KBY1 151331Z 28007KT 18/14 A2987 RMK A01 T01810141  RH  077%=      5-min Rain = 0
KBY1 151332Z 28008KT 18/14 A2987 RMK A01 T01820142  RH  077%=      5-min Rain = 0
KBY1 151333Z 28007KT 18/14 A2987 RMK A01 T01830140  RH  076%=      5-min Rain = 0
KBY1 151334Z 28007KT 18/14 A2987 RMK A01 T01830140  RH  076%=      5-min Rain = 0
KBY1 151335Z 27006KT 18/14 A2987 RMK A01 T01830143  RH  077%=      5-min Rain = 0
KBY1 151336Z 28007KT 19/14 A2987 RMK A01 T01850144  RH  077%=      5-min Rain = 0
KBY1 151337Z 28007KT 19/14 A2987 RMK A01 T01860143  RH  076%=      5-min Rain = 0
KBY1 151338Z 29009KT 19/14 A2987 RMK A01 T01860143  RH  076%=      5-min Rain = 0
KBY1 151339Z 29008KT 19/14 A2987 RMK A01 T01870141  RH  075%=      5-min Rain = 0
KBY1 151340Z 29006G11KT 19/14 A2988 RMK A01 T01860143  RH  076%=      5-min Rain = 0
KBY1 151341Z 29010KT 19/14 A2988 RMK A01 T01870141  RH  075%=      5-min Rain = 0
KBY1 151342Z 29007KT 19/14 A2987 RMK A01 T01870142  RH  075%=      5-min Rain = 0
KBY1 151343Z 29008KT 19/14 A2987 RMK A01 T01870141  RH  074%=      5-min Rain = 0
KBY1 151344Z 28006KT 19/14 A2987 RMK A01 T01870142  RH  075%=      5-min Rain = 0
KBY1 151345Z 29006KT 19/14 A2987 RMK A01 T01880144  RH  076%=      5-min Rain = 0
KBY1 151346Z 29006KT 19/14 A2987 RMK A01 T01880143  RH  075%=      5-min Rain = 0
KBY1 151347Z 29006KT 19/15 A2988 RMK A01 T01890145  RH  075%=      5-min Rain = 0
KBY1 151348Z 29008KT 19/14 A2988 RMK A01 T01900144  RH  074%=      5-min Rain = 0
KBY1 151349Z 28006KT 19/15 A2988 RMK A01 T01910145  RH  075%=      5-min Rain = 0
KBY1 151350Z 28006KT 19/15 A2988 RMK A01 T01900145  RH  075%=      5-min Rain = 0
KBY1 151351Z 27007KT 19/15 A2988 RMK A01 T01920147  RH  075%=      5-min Rain = 0
KBY1 151352Z 30008KT 19/15 A2988 RMK A01 T01920145  RH  074%=      5-min Rain = 0
KBY1 151353Z 29006KT 19/15 A2988 RMK A01 T01930147  RH  075%=      5-min Rain = 0
KBY1 151354Z 29007KT 19/14 A2988 RMK A01 T01930144  RH  073%=      5-min Rain = 0
KBY1 151355Z 29008KT 19/14 A2988 RMK A01 T01930144  RH  073%=      5-min Rain = 0
KBY1 151356Z 30006KT 19/15 A2988 RMK A01 T01940146  RH  074%=      5-min Rain = 0
KBY1 151357Z 30007KT 20/15 A2988 RMK A01 T01950146  RH  073%=      5-min Rain = 0
KBY1 151358Z 29006KT 20/15 A2988 RMK A01 T01960147  RH  073%=      5-min Rain = 0
KBY1 151359Z 29009KT 20/15 A2988 RMK A01 T01970147  RH  073%=      5-min Rain = 0
KBY1 151400Z 28007KT 20/15 A2988 RMK A01 T01970145  RH  072%=      5-min Rain = 0
KBY1 151401Z 29008KT 20/15 A2988 RMK A01 T01970146  RH  072%=      5-min Rain = 0
KBY1 151402Z 29006KT 20/15 A2988 RMK A01 T01970147  RH  073%=      5-min Rain = 0
KBY1 151403Z 29007KT 20/15 A2988 RMK A01 T01980147  RH  072%=      5-min Rain = 0
KBY1 151404Z 30008KT 20/15 A2988 RMK A01 T01980146  RH  072%=      5-min Rain = 0
KBY1 151405Z 28007KT 20/15 A2988 RMK A01 T01980146  RH  072%=      5-min Rain = 0
KBY1 151406Z 29007KT 20/15 A2988 RMK A01 T01980146  RH  072%=      5-min Rain = 0
KBY1 151407Z 30006KT 20/15 A2988 RMK A01 T01980147  RH  072%=      5-min Rain = 0
KBY1 151408Z 30007KT 20/15 A2988 RMK A01 T02000149  RH  072%=      5-min Rain = 0
KBY1 151409Z 30005KT 20/15 A2988 RMK A01 T02010149  RH  072%=      5-min Rain = 0
KBY1 151410Z 30007KT 20/15 A2988 RMK A01 T02020149  RH  071%=      5-min Rain = 0
KBY1 151411Z 30006KT 20/15 A2988 RMK A01 T02020148  RH  071%=      5-min Rain = 0
KBY1 151412Z 29006KT 20/15 A2988 RMK A01 T02030150  RH  071%=      5-min Rain = 0
KBY1 151413Z 29008KT 20/15 A2988 RMK A01 T02040149  RH  071%=      5-min Rain = 0
KBY1 151414Z 28007KT 20/15 A2988 RMK A01 T02040149  RH  071%=      5-min Rain = 0
KBY1 151415Z 30005KT 20/15 A2988 RMK A01 T02040152  RH  072%=      5-min Rain = 0
KBY1 151416Z 29007KT 21/15 A2988 RMK A01 T02060150  RH  070%=      5-min Rain = 0
KBY1 151417Z 31007KT 21/15 A2988 RMK A01 T02070150  RH  070%=      5-min Rain = 0
KBY1 151418Z 31006KT 21/15 A2988 RMK A01 T02080152  RH  070%=      5-min Rain = 0
KBY1 151419Z 32005KT 21/15 A2988 RMK A01 T02100153  RH  070%=      5-min Rain = 0
KBY1 151420Z 33008KT 21/15 A2988 RMK A01 T02120148  RH  067%=      5-min Rain = 0
KBY1 151421Z 34007KT 21/15 A2988 RMK A01 T02130145  RH  065%=      5-min Rain = 0
KBY1 151422Z 33008KT 21/15 A2988 RMK A01 T02140149  RH  066%=      5-min Rain = 0
KBY1 151423Z 32006KT 22/15 A2988 RMK A01 T02150147  RH  065%=      5-min Rain = 0
KBY1 151424Z 32007KT 22/15 A2988 RMK A01 T02160149  RH  065%=      5-min Rain = 0
KBY1 151425Z 32008KT 22/15 A2988 RMK A01 T02170147  RH  064%=      5-min Rain = 0
KBY1 151426Z 31008KT 22/15 A2988 RMK A01 T02170147  RH  064%=      5-min Rain = 0
KBY1 151427Z 32009KT 22/15 A2988 RMK A01 T02170147  RH  065%=      5-min Rain = 0
KBY1 151428Z 31006KT 22/15 A2988 RMK A01 T02170147  RH  065%=      5-min Rain = 0
KBY1 151429Z 32007KT 22/15 A2988 RMK A01 T02180149  RH  065%=      5-min Rain = 0
KBY1 151430Z 33008KT 22/15 A2988 RMK A01 T02190148  RH  064%=      5-min Rain = 0
KBY1 151431Z 32009KT 22/15 A2988 RMK A01 T02190147  RH  064%=      5-min Rain = 0
KBY1 151432Z 33008KT 22/15 A2988 RMK A01 T02190146  RH  063%=      5-min Rain = 0
KBY1 151433Z 32008KT 22/15 A2988 RMK A01 T02190149  RH  064%=      5-min Rain = 0
KBY1 151434Z 32008KT 22/15 A2988 RMK A01 T02190148  RH  064%=      5-min Rain = 0
KBY1 151435Z 33009KT 22/15 A2988 RMK A01 T02200149  RH  064%=      5-min Rain = 0
KBY1 151436Z 33008KT 22/15 A2988 RMK A01 T02210147  RH  063%=      5-min Rain = 0
KBY1 151437Z 34006KT 22/15 A2988 RMK A01 T02210150  RH  064%=      5-min Rain = 0
KBY1 151438Z 34006KT 22/15 A2988 RMK A01 T02220150  RH  064%=      5-min Rain = 0
KBY1 151439Z 34008KT 22/15 A2988 RMK A01 T02240152  RH  064%=      5-min Rain = 0
KBY1 151440Z 34008KT 23/15 A2988 RMK A01 T02250147  RH  062%=      5-min Rain = 0
KBY1 151441Z 32005KT 23/15 A2988 RMK A01 T02250149  RH  062%=      5-min Rain = 0
KBY1 151442Z 35005KT 22/15 A2988 RMK A01 T02240152  RH  063%=      5-min Rain = 0
KBY1 151443Z 35008KT 23/15 A2988 RMK A01 T02250150  RH  062%=      5-min Rain = 0
KBY1 151444Z 35004KT 23/16 A2988 RMK A01 T02260155  RH  064%=      5-min Rain = 0
KBY1 151445Z 33006KT 23/16 A2988 RMK A01 T02280155  RH  063%=      5-min Rain = 0
KBY1 151446Z 34007KT 23/15 A2988 RMK A01 T02290152  RH  062%=      5-min Rain = 0
KBY1 151447Z 34007KT 23/15 A2989 RMK A01 T02280149  RH  061%=      5-min Rain = 0
KBY1 151448Z 33009KT 23/15 A2989 RMK A01 T02270150  RH  062%=      5-min Rain = 0
KBY1 151449Z 32009KT 23/15 A2989 RMK A01 T02280150  RH  062%=      5-min Rain = 0
KBY1 151450Z 34010KT 23/15 A2989 RMK A01 T02270149  RH  061%=      5-min Rain = 0
KBY1 151451Z 33007KT 23/15 A2989 RMK A01 T02260148  RH  061%=      5-min Rain = 0
KBY1 151452Z 33008KT 23/15 A2989 RMK A01 T02260152  RH  063%=      5-min Rain = 0
KBY1 151453Z 33008KT 23/15 A2989 RMK A01 T02280154  RH  063%=      5-min Rain = 0
KBY1 151454Z 34010KT 23/15 A2989 RMK A01 T02290151  RH  061%=      5-min Rain = 0
KBY1 151455Z 33008KT 23/15 A2989 RMK A01 T02290150  RH  061%=      5-min Rain = 0
KBY1 151456Z 34008KT 23/15 A2989 RMK A01 T02300153  RH  062%=      5-min Rain = 0
KBY1 151457Z 34010KT 23/15 A2989 RMK A01 T02300151  RH  061%=      5-min Rain = 0
KBY1 151458Z 33011KT 23/15 A2989 RMK A01 T02300149  RH  060%=      5-min Rain = 0
KBY1 151459Z 33013KT 23/15 A2989 RMK A01 T02300148  RH  060%=      5-min Rain = 0
KBY1 151500Z 32009KT 23/15 A2989 RMK A01 T02290150  RH  061%=      5-min Rain = 0
KBY1 151501Z 32006KT 23/15 A2989 RMK A01 T02300152  RH  061%=      5-min Rain = 0
KBY1 151502Z 32009KT 23/15 A2989 RMK A01 T02310152  RH  061%=      5-min Rain = 0
KBY1 151503Z 31010KT 23/15 A2989 RMK A01 T02320152  RH  061%=      5-min Rain = 0
KBY1 151504Z 33010KT 23/15 A2989 RMK A01 T02330151  RH  060%=      5-min Rain = 0
KBY1 151505Z 32008KT 23/15 A2989 RMK A01 T02330152  RH  060%=      5-min Rain = 0
KBY1 151506Z 33007KT 23/15 A2989 RMK A01 T02330154  RH  061%=      5-min Rain = 0
KBY1 151507Z 34007KT 23/15 A2989 RMK A01 T02340153  RH  060%=      5-min Rain = 0
KBY1 151508Z 33009KT 23/15 A2989 RMK A01 T02340152  RH  060%=      5-min Rain = 0
KBY1 151509Z 33008KT 23/15 A2989 RMK A01 T02330150  RH  060%=      5-min Rain = 0
KBY1 151510Z 34006KT 23/16 A2989 RMK A01 T02330157  RH  062%=      5-min Rain = 0
KBY1 151511Z 34007KT 24/15 A2989 RMK A01 T02350154  RH  061%=      5-min Rain = 0
KBY1 151512Z 34007G12KT 24/16 A2989 RMK A01 T02360156  RH  061%=      5-min Rain = 0
KBY1 151513Z 34008KT 24/15 A2989 RMK A01 T02360152  RH  059%=      5-min Rain = 0
KBY1 151514Z 35007KT 24/15 A2989 RMK A01 T02360154  RH  060%=      5-min Rain = 0
KBY1 151515Z 35007KT 24/15 A2989 RMK A01 T02360154  RH  060%=      5-min Rain = 0
KBY1 151516Z 36006KT 24/16 A2989 RMK A01 T02380159  RH  061%=      5-min Rain = 0
KBY1 151517Z 00009KT 24/16 A2989 RMK A01 T02390157  RH  060%=      5-min Rain = 0
KBY1 151518Z 35009KT 24/16 A2989 RMK A01 T02390158  RH  060%=      5-min Rain = 0
KBY1 151519Z 35008KT 24/16 A2989 RMK A01 T02400158  RH  060%=      5-min Rain = 0
KBY1 151520Z 36008KT 24/16 A2989 RMK A01 T02400155  RH  059%=      5-min Rain = 0
KBY1 151521Z 36009KT 24/16 A2989 RMK A01 T02400157  RH  060%=      5-min Rain = 0
KBY1 151522Z 36009KT 24/15 A2989 RMK A01 T02410153  RH  058%=      5-min Rain = 0
KBY1 151523Z 35009KT 24/16 A2989 RMK A01 T02400156  RH  059%=      5-min Rain = 0
KBY1 151524Z 36009KT 24/16 A2989 RMK A01 T02410158  RH  060%=      5-min Rain = 0
KBY1 151525Z 35009KT 24/16 A2989 RMK A01 T02420156  RH  059%=      5-min Rain = 0
KBY1 151526Z 34008KT 24/16 A2989 RMK A01 T02420157  RH  059%=      5-min Rain = 0
KBY1 151527Z 36009KT 24/16 A2989 RMK A01 T02430159  RH  060%=      5-min Rain = 0
KBY1 151528Z 35007G14KT 24/16 A2989 RMK A01 T02430162  RH  061%=      5-min Rain = 0
KBY1 151529Z 36010KT 25/16 A2989 RMK A01 T02450161  RH  059%=      5-min Rain = 0
KBY1 151530Z 36008G13KT 25/16 A2989 RMK A01 T02460158  RH  058%=      5-min Rain = 0
KBY1 151531Z 35009KT 25/16 A2989 RMK A01 T02450157  RH  058%=      5-min Rain = 0
KBY1 151532Z 35008KT 24/16 A2989 RMK A01 T02440160  RH  059%=      5-min Rain = 0
KBY1 151533Z 35010KT 24/16 A2989 RMK A01 T02440157  RH  058%=      5-min Rain = 0
KBY1 151534Z 35008KT 24/16 A2989 RMK A01 T02440156  RH  058%=      5-min Rain = 0
KBY1 151535Z 35009KT 24/16 A2989 RMK A01 T02440158  RH  059%=      5-min Rain = 0
KBY1 151536Z 35009KT 24/16 A2989 RMK A01 T02440157  RH  058%=      5-min Rain = 0
KBY1 151537Z 33008KT 24/16 A2989 RMK A01 T02440158  RH  059%=      5-min Rain = 0
KBY1 151538Z 34008G13KT 24/16 A2989 RMK A01 T02440162  RH  060%=      5-min Rain = 0
KBY1 151539Z 34009KT 25/16 A2989 RMK A01 T02460159  RH  058%=      5-min Rain = 0
KBY1 151540Z 32007KT 25/16 A2989 RMK A01 T02460159  RH  058%=      5-min Rain = 0
KBY1 151541Z 33006KT 25/16 A2989 RMK A01 T02470162  RH  059%=      5-min Rain = 0
KBY1 151542Z 34007KT 25/16 A2989 RMK A01 T02490164  RH  059%=      5-min Rain = 0
KBY1 151543Z 00008KT 25/16 A2989 RMK A01 T02510163  RH  058%=      5-min Rain = 0
KBY1 151544Z 00008KT 25/16 A2989 RMK A01 T02510162  RH  058%=      5-min Rain = 0
KBY1 151545Z 36007KT 25/16 A2989 RMK A01 T02510164  RH  059%=      5-min Rain = 0
KBY1 151546Z 36010KT 25/16 A2989 RMK A01 T02520162  RH  057%=      5-min Rain = 0
KBY1 151547Z 36011KT 25/16 A2989 RMK A01 T02520160  RH  057%=      5-min Rain = 0
KBY1 151548Z 00008KT 25/16 A2989 RMK A01 T02500162  RH  058%=      5-min Rain = 0
KBY1 151549Z 00007KT 25/16 A2989 RMK A01 T02510164  RH  058%=      5-min Rain = 0
KBY1 151550Z 00009KT 25/16 A2989 RMK A01 T02520162  RH  057%=      5-min Rain = 0
KBY1 151551Z 00006KT 25/16 A2989 RMK A01 T02520161  RH  057%=      5-min Rain = 0
KBY1 151552Z 35009G14KT 25/16 A2989 RMK A01 T02520164  RH  058%=      5-min Rain = 0
KBY1 151553Z 35008KT 25/16 A2989 RMK A01 T02520161  RH  057%=      5-min Rain = 0
KBY1 151554Z 36006KT 25/16 A2989 RMK A01 T02520161  RH  057%=      5-min Rain = 0
KBY1 151555Z 02004KT 25/16 A2989 RMK A01 T02520164  RH  058%=      5-min Rain = 0
KBY1 151556Z 00007KT 25/17 A2989 RMK A01 T02540167  RH  058%=      5-min Rain = 0
KBY1 151557Z 00007KT 26/16 A2989 RMK A01 T02560164  RH  057%=      5-min Rain = 0
KBY1 151558Z 01007KT 26/16 A2989 RMK A01 T02550161  RH  056%=      5-min Rain = 0
KBY1 151559Z 01005KT 25/16 A2989 RMK A01 T02530164  RH  058%=      5-min Rain = 0
KBY1 151600Z 03007KT 26/17 A2989 RMK A01 T02550167  RH  058%=      5-min Rain = 0
KBY1 151601Z 03009KT 26/17 A2989 RMK A01 T02570165  RH  057%=      5-min Rain = 0
KBY1 151602Z 02008KT 26/16 A2989 RMK A01 T02570161  RH  055%=      5-min Rain = 0
KBY1 151603Z 36008KT 26/16 A2989 RMK A01 T02560161  RH  056%=      5-min Rain = 0
KBY1 151604Z 00009KT 26/16 A2989 RMK A01 T02560164  RH  057%=      5-min Rain = 0
KBY1 151605Z 01010G15KT 26/16 A2989 RMK A01 T02560162  RH  056%=      5-min Rain = 0
KBY1 151606Z 02008KT 26/16 A2989 RMK A01 T02560162  RH  056%=      5-min Rain = 0
KBY1 151607Z 02008KT 26/16 A2989 RMK A01 T02560162  RH  056%=      5-min Rain = 0
KBY1 151608Z 02005KT 26/16 A2989 RMK A01 T02560162  RH  056%=      5-min Rain = 0
KBY1 151609Z 01006KT 26/17 A2989 RMK A01 T02570166  RH  057%=      5-min Rain = 0
KBY1 151610Z 01010KT 26/16 A2989 RMK A01 T02580163  RH  056%=      5-min Rain = 0
KBY1 151611Z 01007KT 26/16 A2989 RMK A01 T02580161  RH  055%=      5-min Rain = 0
KBY1 151612Z 03009KT 26/17 A2989 RMK A01 T02580167  RH  057%=      5-min Rain = 0
KBY1 151613Z 01009G14KT 26/16 A2989 RMK A01 T02590164  RH  056%=      5-min Rain = 0
KBY1 151614Z 00010KT 26/17 A2989 RMK A01 T02590165  RH  056%=      5-min Rain = 0
KBY1 151615Z 36010KT 26/16 A2989 RMK A01 T02600161  RH  055%=      5-min Rain = 0
KBY1 151616Z 01010KT 26/16 A2989 RMK A01 T02590161  RH  055%=      5-min Rain = 0
KBY1 151617Z 02009KT 26/16 A2989 RMK A01 T02580163  RH  056%=      5-min Rain = 0
KBY1 151618Z 03011KT 26/16 A2989 RMK A01 T02590161  RH  054%=      5-min Rain = 0
KBY1 151619Z 03013KT 26/16 A2989 RMK A01 T02590160  RH  054%=      5-min Rain = 0
KBY1 151620Z 03012KT 26/16 A2989 RMK A01 T02590161  RH  055%=      5-min Rain = 0
KBY1 151621Z 03009KT 26/16 A2989 RMK A01 T02580161  RH  055%=      5-min Rain = 0
KBY1 151622Z 02008KT 26/16 A2989 RMK A01 T02580163  RH  056%=      5-min Rain = 0
KBY1 151623Z 01008KT 26/17 A2989 RMK A01 T02590165  RH  056%=      5-min Rain = 0
KBY1 151624Z 02008G13KT 26/17 A2989 RMK A01 T02610166  RH  056%=      5-min Rain = 0
KBY1 151625Z 04011KT 26/16 A2989 RMK A01 T02630164  RH  054%=      5-min Rain = 0
KBY1 151626Z 04010KT 26/16 A2989 RMK A01 T02630164  RH  054%=      5-min Rain = 0
KBY1 151627Z 03010KT 26/16 A2989 RMK A01 T02630163  RH  054%=      5-min Rain = 0
KBY1 151628Z 03008G13KT 26/17 A2989 RMK A01 T02620166  RH  055%=      5-min Rain = 0
KBY1 151629Z 02012KT 26/17 A2989 RMK A01 T02640166  RH  055%=      5-min Rain = 0
KBY1 151630Z 02008KT 26/16 A2989 RMK A01 T02640163  RH  054%=      5-min Rain = 0
KBY1 151631Z 03008KT 26/17 A2989 RMK A01 T02640165  RH  055%=      5-min Rain = 0
KBY1 151632Z 03007KT 26/16 A2989 RMK A01 T02630160  RH  053%=      5-min Rain = 0
KBY1 151633Z 03008KT 26/17 A2989 RMK A01 T02630166  RH  055%=      5-min Rain = 0
KBY1 151634Z 02012KT 27/16 A299 RMK A01 T02650164  RH  054%=      5-min Rain = 0
KBY1 151635Z 02008KT 27/16 A299 RMK A01 T02650163  RH  054%=      5-min Rain = 0
KBY1 151636Z 03010KT 26/16 A299 RMK A01 T02640163  RH  054%=      5-min Rain = 0
KBY1 151637Z 03011KT 26/16 A299 RMK A01 T02640159  RH  052%=      5-min Rain = 0
KBY1 151638Z 02011KT 26/16 A2989 RMK A01 T02630163  RH  054%=      5-min Rain = 0
KBY1 151639Z 02010KT 26/16 A2989 RMK A01 T02640163  RH  054%=      5-min Rain = 0
KBY1 151640Z 02011KT 27/17 A299 RMK A01 T02650166  RH  054%=      5-min Rain = 0
KBY1 151641Z 02008KT 27/16 A299 RMK A01 T02660160  RH  052%=      5-min Rain = 0
KBY1 151642Z 02009KT 26/16 A299 RMK A01 T02640163  RH  054%=      5-min Rain = 0
KBY1 151643Z 00009G14KT 26/17 A299 RMK A01 T02640165  RH  054%=      5-min Rain = 0
KBY1 151644Z 00010KT 27/16 A299 RMK A01 T02650163  RH  053%=      5-min Rain = 0
KBY1 151645Z 01011KT 27/16 A299 RMK A01 T02650162  RH  053%=      5-min Rain = 0
KBY1 151646Z 00011KT 27/16 A299 RMK A01 T02650164  RH  054%=      5-min Rain = 0
KBY1 151647Z 01010KT 27/16 A299 RMK A01 T02660164  RH  053%=      5-min Rain = 0
KBY1 151648Z 03010KT 27/16 A299 RMK A01 T02680164  RH  053%=      5-min Rain = 0
KBY1 151649Z 01009KT 27/17 A299 RMK A01 T02680165  RH  053%=      5-min Rain = 0
KBY1 151650Z 00012KT 27/16 A299 RMK A01 T02690164  RH  053%=      5-min Rain = 0
KBY1 151651Z 01011KT 27/16 A299 RMK A01 T02690159  RH  051%=      5-min Rain = 0
KBY1 151652Z 01011KT 27/16 A299 RMK A01 T02680161  RH  052%=      5-min Rain = 0
KBY1 151653Z 01012G17KT 27/16 A299 RMK A01 T02670160  RH  052%=      5-min Rain = 0
KBY1 151654Z 02013KT 27/16 A299 RMK A01 T02670161  RH  052%=      5-min Rain = 0
KBY1 151655Z 03013KT 27/17 A299 RMK A01 T02680165  RH  053%=      5-min Rain = 0
KBY1 151656Z 04013KT 27/16 A299 RMK A01 T02690161  RH  051%=      5-min Rain = 0
KBY1 151657Z 04010KT 27/16 A299 RMK A01 T02680164  RH  053%=      5-min Rain = 0
KBY1 151658Z 03009KT 27/17 A299 RMK A01 T02680167  RH  054%=      5-min Rain = 0
KBY1 151659Z 03012KT 27/16 A299 RMK A01 T02690163  RH  052%=      5-min Rain = 0
KBY1 151700Z 03016KT 27/16 A299 RMK A01 T02690163  RH  052%=      5-min Rain = 0
KBY1 151701Z 02014KT 27/16 A299 RMK A01 T02680159  RH  051%=      5-min Rain = 0
KBY1 151702Z 01009KT 27/16 A299 RMK A01 T02680161  RH  052%=      5-min Rain = 0
KBY1 151703Z 01011KT 27/16 A2989 RMK A01 T02690161  RH  052%=      5-min Rain = 0
KBY1 151704Z 00011KT 27/16 A2989 RMK A01 T02700164  RH  052%=      5-min Rain = 0
KBY1 151705Z 03011KT 27/16 A2989 RMK A01 T02710164  RH  052%=      5-min Rain = 0
KBY1 151706Z 04011KT 27/17 A2989 RMK A01 T02720167  RH  053%=      5-min Rain = 0
KBY1 151707Z 03010KT 27/17 A2989 RMK A01 T02730167  RH  052%=      5-min Rain = 0
KBY1 151708Z 03008KT 27/17 A2989 RMK A01 T02730166  RH  052%=      5-min Rain = 0
KBY1 151709Z 04010KT 27/17 A2989 RMK A01 T02730167  RH  052%=      5-min Rain = 0
KBY1 151710Z 03012KT 27/16 A2989 RMK A01 T02730164  RH  051%=      5-min Rain = 0
KBY1 151711Z 02010G16KT 27/17 A2989 RMK A01 T02730168  RH  053%=      5-min Rain = 0
KBY1 151712Z 02012KT 27/16 A2989 RMK A01 T02740163  RH  051%=      5-min Rain = 0
KBY1 151713Z 01010KT 28/17 A2989 RMK A01 T02750165  RH  051%=      5-min Rain = 0
KBY1 151714Z 02010KT 28/17 A2989 RMK A01 T02750165  RH  051%=      5-min Rain = 0
KBY1 151715Z 03012G20KT 28/17 A2989 RMK A01 T02760166  RH  051%=      5-min Rain = 0
KBY1 151716Z 04013KT 28/17 A2989 RMK A01 T02760168  RH  052%=      5-min Rain = 0
KBY1 151717Z 04010KT 28/17 A2989 RMK A01 T02760169  RH  052%=      5-min Rain = 0
KBY1 151718Z 04011KT 28/17 A2989 RMK A01 T02770167  RH  051%=      5-min Rain = 0
KBY1 151719Z 02011KT 28/17 A2989 RMK A01 T02770167  RH  051%=      5-min Rain = 0
KBY1 151720Z 03014KT 28/17 A2989 RMK A01 T02770165  RH  050%=      5-min Rain = 0
KBY1 151721Z 02014KT 28/16 A2989 RMK A01 T02750162  RH  050%=      5-min Rain = 0
KBY1 151722Z 03014KT 27/16 A2989 RMK A01 T02740163  RH  051%=      5-min Rain = 0
KBY1 151723Z 02013KT 28/16 A2989 RMK A01 T02750163  RH  051%=      5-min Rain = 0
KBY1 151724Z 04014KT 28/16 A2989 RMK A01 T02750162  RH  050%=      5-min Rain = 0
KBY1 151725Z 03014KT 27/16 A2989 RMK A01 T02740162  RH  050%=      5-min Rain = 0
KBY1 151726Z 03011KT 27/16 A2989 RMK A01 T02730162  RH  051%=      5-min Rain = 0
KBY1 151727Z 04008KT 27/17 A2989 RMK A01 T02740165  RH  051%=      5-min Rain = 0
KBY1 151728Z 05011KT 27/17 A2989 RMK A01 T02740167  RH  052%=      5-min Rain = 0
KBY1 151729Z 05010KT 28/17 A2989 RMK A01 T02750169  RH  052%=      5-min Rain = 0
KBY1 151730Z 05013KT 28/17 A2989 RMK A01 T02750166  RH  051%=      5-min Rain = 0
KBY1 151731Z 05012KT 28/17 A299 RMK A01 T02760165  RH  051%=      5-min Rain = 0
KBY1 151732Z 05009KT 28/16 A299 RMK A01 T02760162  RH  050%=      5-min Rain = 0
KBY1 151733Z 05008KT 28/16 A299 RMK A01 T02760162  RH  050%=      5-min Rain = 0
KBY1 151734Z 04011KT 28/16 A299 RMK A01 T02760163  RH  050%=      5-min Rain = 0
KBY1 151735Z 05010KT 28/16 A299 RMK A01 T02760161  RH  049%=      5-min Rain = 0
KBY1 151736Z 03010KT 28/16 A299 RMK A01 T02760162  RH  050%=      5-min Rain = 0
KBY1 151737Z 05011KT 28/17 A299 RMK A01 T02770165  RH  050%=      5-min Rain = 0
KBY1 151738Z 05012KT 28/17 A299 RMK A01 T02790165  RH  050%=      5-min Rain = 0
KBY1 151739Z 05010KT 28/16 A299 RMK A01 T02790162  RH  049%=      5-min Rain = 0
KBY1 151740Z 06009KT 28/16 A299 RMK A01 T02780160  RH  048%=      5-min Rain = 0
KBY1 151741Z 04008KT 28/17 A299 RMK A01 T02780171  RH  052%=      5-min Rain = 0
KBY1 151742Z 03009G14KT 28/17 A299 RMK A01 T02800168  RH  051%=      5-min Rain = 0
KBY1 151743Z 03011KT 28/16 A299 RMK A01 T02800163  RH  049%=      5-min Rain = 0
KBY1 151744Z 03010KT 28/16 A299 RMK A01 T02800161  RH  049%=      5-min Rain = 0
KBY1 151745Z 03010KT 28/16 A299 RMK A01 T02770157  RH  048%=      5-min Rain = 0
KBY1 151746Z 03007KT 28/16 A299 RMK A01 T02760162  RH  050%=      5-min Rain = 0
KBY1 151747Z 02009KT 28/16 A299 RMK A01 T02770163  RH  050%=      5-min Rain = 0
KBY1 151748Z 03011KT 28/16 A299 RMK A01 T02790160  RH  049%=      5-min Rain = 0
KBY1 151749Z 04008KT 28/17 A299 RMK A01 T02810169  RH  051%=      5-min Rain = 0
KBY1 151750Z 04009KT 28/16 A299 RMK A01 T02830158  RH  047%=      5-min Rain = 0
KBY1 151751Z 04010KT 28/16 A299 RMK A01 T02810164  RH  049%=      5-min Rain = 0
KBY1 151752Z 03012KT 28/16 A299 RMK A01 T02810161  RH  048%=      5-min Rain = 0
KBY1 151753Z 05010KT 28/16 A299 RMK A01 T02800161  RH  048%=      5-min Rain = 0
KBY1 151754Z 06010KT 28/16 A2989 RMK A01 T02790162  RH  049%=      5-min Rain = 0
KBY1 151755Z 06008KT 28/16 A2989 RMK A01 T02780164  RH  050%=      5-min Rain = 0
KBY1 151756Z 04010KT 28/16 A2989 RMK A01 T02780160  RH  049%=      5-min Rain = 0
KBY1 151757Z 04009KT 28/16 A2989 RMK A01 T02780161  RH  049%=      5-min Rain = 0
KBY1 151758Z 04008KT 28/17 A2989 RMK A01 T02800166  RH  050%=      5-min Rain = 0
KBY1 151759Z 05012KT 28/17 A2989 RMK A01 T02820167  RH  050%=      5-min Rain = 0
KBY1 151800Z 04011KT 28/16 A2989 RMK A01 T02820159  RH  047%=      5-min Rain = 0
KBY1 151801Z 04008KT 28/16 A2989 RMK A01 T02800162  RH  049%=      5-min Rain = 0
KBY1 151802Z 05010KT 28/16 A2989 RMK A01 T02800164  RH  049%=      5-min Rain = 0
KBY1 151803Z 05008KT 28/17 A2989 RMK A01 T02820165  RH  049%=      5-min Rain = 0
KBY1 151804Z 05013KT 28/17 A2989 RMK A01 T02840166  RH  049%=      5-min Rain = 0
KBY1 151805Z 05012KT 29/16 A2989 RMK A01 T02850161  RH  047%=      5-min Rain = 0
KBY1 151806Z 05011KT 28/16 A2989 RMK A01 T02840161  RH  047%=      5-min Rain = 0
KBY1 151807Z 04009KT 28/16 A2989 RMK A01 T02830164  RH  048%=      5-min Rain = 0
KBY1 151808Z 04010KT 29/17 A2989 RMK A01 T02850165  RH  048%=      5-min Rain = 0
KBY1 151809Z 06010KT 29/16 A299 RMK A01 T02860162  RH  047%=      5-min Rain = 0
KBY1 151810Z 05007KT 29/16 A299 RMK A01 T02850161  RH  047%=      5-min Rain = 0
KBY1 151811Z 05008KT 29/17 A299 RMK A01 T02850167  RH  049%=      5-min Rain = 0
KBY1 151812Z 03009KT 29/17 A299 RMK A01 T02870166  RH  048%=      5-min Rain = 0
KBY1 151813Z 03010KT 29/16 A299 RMK A01 T02880163  RH  047%=      5-min Rain = 0
KBY1 151814Z 03010KT 29/16 A299 RMK A01 T02880163  RH  047%=      5-min Rain = 0
KBY1 151815Z 06009KT 29/17 A299 RMK A01 T02880168  RH  048%=      5-min Rain = 0
KBY1 151816Z 07010KT 29/17 A299 RMK A01 T02880167  RH  048%=      5-min Rain = 0
KBY1 151817Z 07010KT 29/17 A299 RMK A01 T02870166  RH  048%=      5-min Rain = 0
KBY1 151818Z 06009KT 29/17 A299 RMK A01 T02850165  RH  048%=      5-min Rain = 0
KBY1 151819Z 05008KT 29/17 A299 RMK A01 T02860169  RH  049%=      5-min Rain = 0
KBY1 151820Z 06008KT 29/17 A299 RMK A01 T02870167  RH  048%=      5-min Rain = 0
KBY1 151821Z 06009KT 29/16 A299 RMK A01 T02880163  RH  047%=      5-min Rain = 0
KBY1 151822Z 06008KT 29/16 A299 RMK A01 T02860156  RH  045%=      5-min Rain = 0
KBY1 151823Z 06010KT 29/17 A299 RMK A01 T02850165  RH  048%=      5-min Rain = 0
KBY1 151824Z 07011KT 29/17 A299 RMK A01 T02850166  RH  049%=      5-min Rain = 0
KBY1 151825Z 06010KT 29/17 A299 RMK A01 T02860166  RH  048%=      5-min Rain = 0
KBY1 151826Z 07009KT 29/16 A299 RMK A01 T02860164  RH  048%=      5-min Rain = 0
KBY1 151827Z 07012KT 29/17 A299 RMK A01 T02860165  RH  048%=      5-min Rain = 0
KBY1 151828Z 06011KT 29/16 A299 RMK A01 T02860160  RH  046%=      5-min Rain = 0
KBY1 151829Z 06011KT 29/17 A299 RMK A01 T02850165  RH  048%=      5-min Rain = 0
KBY1 151830Z 08010KT 29/16 A299 RMK A01 T02850164  RH  048%=      5-min Rain = 0
KBY1 151831Z 06012KT 29/17 A299 RMK A01 T02860174  RH  051%=      5-min Rain = 0
KBY1 151832Z 06011KT 29/16 A299 RMK A01 T02880164  RH  047%=      5-min Rain = 0
KBY1 151833Z 06009KT 29/16 A299 RMK A01 T02870162  RH  047%=      5-min Rain = 0
KBY1 151834Z 08006KT 29/16 A299 RMK A01 T02860163  RH  047%=      5-min Rain = 0
KBY1 151835Z 09007KT 29/16 A299 RMK A01 T02860164  RH  047%=      5-min Rain = 0
KBY1 151836Z 10005KT 29/16 A299 RMK A01 T02860155  RH  045%=      5-min Rain = 0
KBY1 151837Z 07007G12KT 29/16 A299 RMK A01 T02850163  RH  047%=      5-min Rain = 0
KBY1 151838Z 07008KT 29/17 A299 RMK A01 T02860173  RH  050%=      5-min Rain = 0
KBY1 151839Z 06007KT 29/17 A299 RMK A01 T02890172  RH  049%=      5-min Rain = 0
KBY1 151840Z 06008KT 29/17 A299 RMK A01 T02900170  RH  048%=      5-min Rain = 0
KBY1 151841Z 06010KT 29/16 A299 RMK A01 T02910164  RH  046%=      5-min Rain = 0
KBY1 151842Z 05007KT 29/16 A299 RMK A01 T02900163  RH  046%=      5-min Rain = 0
KBY1 151843Z 06009KT 29/17 A299 RMK A01 T02890165  RH  047%=      5-min Rain = 0
KBY1 151844Z 06009KT 29/16 A299 RMK A01 T02890162  RH  046%=      5-min Rain = 0
KBY1 151845Z 07009KT 29/17 A299 RMK A01 T02880165  RH  047%=      5-min Rain = 0
KBY1 151846Z 08008KT 29/17 A299 RMK A01 T02880168  RH  048%=      5-min Rain = 0
KBY1 151847Z 07008KT 29/16 A299 RMK A01 T02870163  RH  047%=      5-min Rain = 0
KBY1 151848Z 05005KT 29/16 A299 RMK A01 T02880162  RH  046%=      5-min Rain = 0
KBY1 151849Z 04004G9KT 29/16 A299 RMK A01 T02880163  RH  047%=      5-min Rain = 0
KBY1 151850Z 03006KT 29/16 A299 RMK A01 T02900155  RH  044%=      5-min Rain = 0
KBY1 151851Z 03006KT 29/16 A299 RMK A01 T02890157  RH  045%=      5-min Rain = 0
KBY1 151852Z 03010KT 29/16 A299 RMK A01 T02900160  RH  045%=      5-min Rain = 0
KBY1 151853Z 03009KT 29/17 A299 RMK A01 T02910165  RH  047%=      5-min Rain = 0
KBY1 151854Z 03009KT 29/16 A299 RMK A01 T02920160  RH  045%=      5-min Rain = 0
KBY1 151855Z 01010KT 29/16 A299 RMK A01 T02920159  RH  044%=      5-min Rain = 0
KBY1 151856Z 03008KT 29/16 A299 RMK A01 T02920157  RH  044%=      5-min Rain = 0
KBY1 151857Z 04008KT 29/16 A299 RMK A01 T02910158  RH  044%=      5-min Rain = 0
KBY1 151858Z 08006KT 29/16 A299 RMK A01 T02900157  RH  044%=      5-min Rain = 0
KBY1 151859Z 07008KT 29/17 A299 RMK A01 T02900167  RH  048%=      5-min Rain = 0
KBY1 151900Z 08009KT 29/17 A299 RMK A01 T02900166  RH  047%=      5-min Rain = 0
KBY1 151901Z 07011KT 29/16 A299 RMK A01 T02900162  RH  046%=      5-min Rain = 0
KBY1 151902Z 06009KT 29/16 A299 RMK A01 T02900162  RH  046%=      5-min Rain = 0
KBY1 151903Z 06006KT 29/16 A299 RMK A01 T02900161  RH  046%=      5-min Rain = 0
KBY1 151904Z 06006KT 29/17 A299 RMK A01 T02910168  RH  047%=      5-min Rain = 0
KBY1 151905Z 09007KT 29/16 A299 RMK A01 T02920164  RH  046%=      5-min Rain = 0
KBY1 151906Z 10011KT 29/17 A299 RMK A01 T02920165  RH  046%=      5-min Rain = 0
KBY1 151907Z 06011KT 29/16 A299 RMK A01 T02910164  RH  046%=      5-min Rain = 0
KBY1 151908Z 06010KT 29/16 A299 RMK A01 T02900157  RH  044%=      5-min Rain = 0
KBY1 151909Z 08010KT 29/17 A299 RMK A01 T02890165  RH  047%=      5-min Rain = 0
KBY1 151910Z 07011KT 29/16 A299 RMK A01 T02880164  RH  047%=      5-min Rain = 0
KBY1 151911Z 06011KT 29/16 A299 RMK A01 T02880159  RH  045%=      5-min Rain = 0
KBY1 151912Z 06010KT 29/16 A299 RMK A01 T02880160  RH  046%=      5-min Rain = 0
KBY1 151913Z 06010KT 29/16 A299 RMK A01 T02880163  RH  047%=      5-min Rain = 0
KBY1 151914Z 08009KT 29/16 A299 RMK A01 T02880161  RH  046%=      5-min Rain = 0
KBY1 151915Z 08009KT 29/17 A299 RMK A01 T02890165  RH  047%=      5-min Rain = 0
KBY1 151916Z 07010KT 29/17 A299 RMK A01 T02900172  RH  049%=      5-min Rain = 0
KBY1 151917Z 08009KT 29/17 A299 RMK A01 T02910167  RH  047%=      5-min Rain = 0
KBY1 151918Z 07010KT 29/17 A299 RMK A01 T02910171  RH  048%=      5-min Rain = 0
KBY1 151919Z 07012KT 29/16 A299 RMK A01 T02900161  RH  046%=      5-min Rain = 0
KBY1 151920Z 06012KT 29/16 A299 RMK A01 T02890158  RH  045%=      5-min Rain = 0
KBY1 151921Z 05010KT 29/16 A299 RMK A01 T02890156  RH  044%=      5-min Rain = 0
KBY1 151922Z 05008KT 29/16 A299 RMK A01 T02890160  RH  046%=      5-min Rain = 0
KBY1 151923Z 06008KT 29/16 A299 RMK A01 T02900160  RH  045%=      5-min Rain = 0
KBY1 151924Z 07008KT 29/16 A2989 RMK A01 T02900162  RH  046%=      5-min Rain = 0
KBY1 151925Z 07007KT 29/16 A299 RMK A01 T02900159  RH  045%=      5-min Rain = 0
KBY1 151926Z 05006KT 29/17 A2989 RMK A01 T02900171  RH  048%=      5-min Rain = 0
KBY1 151927Z 04009KT 29/17 A2989 RMK A01 T02930166  RH  046%=      5-min Rain = 0
KBY1 151928Z 05008KT 29/16 A2989 RMK A01 T02940161  RH  045%=      5-min Rain = 0
KBY1 151929Z 06010KT 29/16 A299 RMK A01 T02930163  RH  046%=      5-min Rain = 0
KBY1 151930Z 05008KT 29/17 A2989 RMK A01 T02920165  RH  046%=      5-min Rain = 0
KBY1 151931Z 07009KT 29/17 A299 RMK A01 T02930171  RH  048%=      5-min Rain = 0
KBY1 151932Z 07009KT 29/17 A299 RMK A01 T02940166  RH  046%=      5-min Rain = 0
KBY1 151933Z 08008KT 29/17 A2989 RMK A01 T02920169  RH  047%=      5-min Rain = 0
KBY1 151934Z 05010G15KT 29/17 A299 RMK A01 T02920165  RH  046%=      5-min Rain = 0
KBY1 151935Z 06011KT 29/16 A299 RMK A01 T02920161  RH  045%=      5-min Rain = 0
KBY1 151936Z 05011KT 29/16 A299 RMK A01 T02920158  RH  044%=      5-min Rain = 0
KBY1 151937Z 05009KT 29/16 A299 RMK A01 T02910158  RH  044%=      5-min Rain = 0
KBY1 151938Z 05008KT 29/16 A2989 RMK A01 T02910157  RH  044%=      5-min Rain = 0
KBY1 151939Z 06009KT 29/16 A2989 RMK A01 T02910164  RH  046%=      5-min Rain = 0
KBY1 151940Z 07008KT 29/16 A2989 RMK A01 T02910162  RH  046%=      5-min Rain = 0
KBY1 151941Z 06008KT 29/17 A2989 RMK A01 T02910166  RH  047%=      5-min Rain = 0
KBY1 151942Z 06009KT 29/16 A2989 RMK A01 T02920164  RH  046%=      5-min Rain = 0
KBY1 151943Z 06010KT 29/16 A2989 RMK A01 T02920163  RH  046%=      5-min Rain = 0
KBY1 151944Z 05010KT 29/17 A2989 RMK A01 T02920165  RH  046%=      5-min Rain = 0
KBY1 151945Z 05010KT 29/17 A2989 RMK A01 T02930166  RH  046%=      5-min Rain = 0
KBY1 151946Z 06009KT 29/17 A2989 RMK A01 T02940165  RH  046%=      5-min Rain = 0
KBY1 151947Z 06010KT 29/16 A2989 RMK A01 T02930161  RH  045%=      5-min Rain = 0
KBY1 151948Z 06008KT 29/17 A2989 RMK A01 T02920166  RH  047%=      5-min Rain = 0
KBY1 151949Z 07009KT 29/17 A2989 RMK A01 T02930172  RH  048%=      5-min Rain = 0
KBY1 151950Z 08008KT 30/17 A2989 RMK A01 T02950170  RH  047%=      5-min Rain = 0
KBY1 151951Z 07009KT 30/17 A2989 RMK A01 T02950174  RH  048%=      5-min Rain = 0
KBY1 151952Z 06010KT 30/16 A2989 RMK A01 T02960163  RH  045%=      5-min Rain = 0
KBY1 151953Z 08009KT 30/17 A2989 RMK A01 T02960170  RH  047%=      5-min Rain = 0
KBY1 151954Z 08011KT 30/17 A2989 RMK A01 T02960167  RH  046%=      5-min Rain = 0
KBY1 151955Z 08012KT 30/16 A2989 RMK A01 T02950164  RH  045%=      5-min Rain = 0
KBY1 151956Z 07011KT 29/16 A2989 RMK A01 T02940164  RH  045%=      5-min Rain = 0
KBY1 151957Z 07011KT 29/16 A2989 RMK A01 T02930162  RH  045%=      5-min Rain = 0
KBY1 151958Z 06011KT 29/16 A2989 RMK A01 T02930160  RH  045%=      5-min Rain = 0
KBY1 151959Z 05011G16KT 29/16 A2989 RMK A01 T02930159  RH  044%=      5-min Rain = 0
KBY1 152000Z 05015KT 29/16 A2989 RMK A01 T02930157  RH  044%=      5-min Rain = 0
KBY1 152001Z 06013KT 29/16 A2989 RMK A01 T02930157  RH  044%=      5-min Rain = 0
KBY1 152002Z 07009KT 29/16 A2989 RMK A01 T02930156  RH  043%=      5-min Rain = 0
KBY1 152003Z 08011KT 29/16 A2989 RMK A01 T02930163  RH  045%=      5-min Rain = 0
KBY1 152004Z 06010KT 29/16 A2989 RMK A01 T02940163  RH  045%=      5-min Rain = 0
KBY1 152005Z 06010KT 29/16 A2989 RMK A01 T02940158  RH  044%=      5-min Rain = 0
KBY1 152006Z 08011KT 29/16 A2989 RMK A01 T02940163  RH  045%=      5-min Rain = 0
KBY1 152007Z 07012KT 29/16 A2989 RMK A01 T02940164  RH  045%=      5-min Rain = 0
KBY1 152008Z 07011KT 29/16 A2989 RMK A01 T02930156  RH  043%=      5-min Rain = 0
KBY1 152009Z 06009KT 29/16 A2989 RMK A01 T02930161  RH  045%=      5-min Rain = 0
KBY1 152010Z 07010KT 29/17 A2989 RMK A01 T02930170  RH  048%=      5-min Rain = 0
KBY1 152011Z 07011KT 29/16 A2989 RMK A01 T02940162  RH  045%=      5-min Rain = 0
KBY1 152012Z 07009KT 29/16 A2989 RMK A01 T02940162  RH  045%=      5-min Rain = 0
KBY1 152013Z 06008KT 29/17 A2989 RMK A01 T02930169  RH  047%=      5-min Rain = 0
KBY1 152014Z 05008KT 29/16 A2989 RMK A01 T02930163  RH  045%=      5-min Rain = 0
KBY1 152015Z 07009KT 29/17 A2989 RMK A01 T02930166  RH  046%=      5-min Rain = 0
KBY1 152016Z 07010KT 29/17 A2989 RMK A01 T02940165  RH  046%=      5-min Rain = 0
KBY1 152017Z 06012G17KT 29/16 A2989 RMK A01 T02930157  RH  044%=      5-min Rain = 0
KBY1 152018Z 06011KT 29/16 A2989 RMK A01 T02920161  RH  045%=      5-min Rain = 0
KBY1 152019Z 07011KT 29/17 A2988 RMK A01 T02930166  RH  046%=      5-min Rain = 0
KBY1 152020Z 07012KT 29/16 A2988 RMK A01 T02940160  RH  044%=      5-min Rain = 0
KBY1 152021Z 06012KT 29/16 A2988 RMK A01 T02930164  RH  046%=      5-min Rain = 0
KBY1 152022Z 05011KT 29/16 A2988 RMK A01 T02940158  RH  044%=      5-min Rain = 0
KBY1 152023Z 07011KT 29/16 A2988 RMK A01 T02940158  RH  044%=      5-min Rain = 0
KBY1 152024Z 08011KT 29/16 A2988 RMK A01 T02940161  RH  045%=      5-min Rain = 0
KBY1 152025Z 07010KT 29/16 A2988 RMK A01 T02940163  RH  045%=      5-min Rain = 0
KBY1 152026Z 07013KT 29/16 A2988 RMK A01 T02940161  RH  045%=      5-min Rain = 0
KBY1 152027Z 08010KT 30/16 A2988 RMK A01 T02950159  RH  044%=      5-min Rain = 0
KBY1 152028Z 07012KT 30/16 A2988 RMK A01 T02950163  RH  045%=      5-min Rain = 0
KBY1 152029Z 07010KT 29/16 A2988 RMK A01 T02940157  RH  043%=      5-min Rain = 0
KBY1 152030Z 05012KT 29/16 A2988 RMK A01 T02930158  RH  044%=      5-min Rain = 0
KBY1 152031Z 05009KT 29/15 A2988 RMK A01 T02930154  RH  043%=      5-min Rain = 0
KBY1 152032Z 03009KT 29/16 A2988 RMK A01 T02930156  RH  043%=      5-min Rain = 0
KBY1 152033Z 04009KT 29/15 A2988 RMK A01 T02940153  RH  042%=      5-min Rain = 0
KBY1 152034Z 04010KT 30/16 A2988 RMK A01 T02950155  RH  043%=      5-min Rain = 0
KBY1 152035Z 05008KT 30/16 A2988 RMK A01 T02950159  RH  044%=      5-min Rain = 0
KBY1 152036Z 06012KT 30/17 A2988 RMK A01 T02970165  RH  045%=      5-min Rain = 0
KBY1 152037Z 05011KT 30/16 A2988 RMK A01 T02980162  RH  044%=      5-min Rain = 0
KBY1 152038Z 05011KT 30/15 A2988 RMK A01 T02980154  RH  042%=      5-min Rain = 0
KBY1 152039Z 05011KT 30/15 A2988 RMK A01 T02960151  RH  041%=      5-min Rain = 0
KBY1 152040Z 05010KT 30/16 A2988 RMK A01 T02950157  RH  043%=      5-min Rain = 0
KBY1 152041Z 06010KT 29/16 A2988 RMK A01 T02940156  RH  043%=      5-min Rain = 0
KBY1 152042Z 04010KT 29/16 A2988 RMK A01 T02940161  RH  045%=      5-min Rain = 0
KBY1 152043Z 04008G14KT 29/15 A2988 RMK A01 T02940153  RH  042%=      5-min Rain = 0
KBY1 152044Z 05011KT 29/16 A2988 RMK A01 T02940157  RH  043%=      5-min Rain = 0
KBY1 152045Z 04009KT 30/17 A2988 RMK A01 T02950165  RH  045%=      5-min Rain = 0
KBY1 152046Z 05008KT 30/17 A2988 RMK A01 T02960165  RH  045%=      5-min Rain = 0
KBY1 152047Z 06010KT 30/17 A2988 RMK A01 T02970165  RH  045%=      5-min Rain = 0
KBY1 152048Z 07011KT 30/17 A2988 RMK A01 T02950165  RH  045%=      5-min Rain = 0
KBY1 152049Z 07010KT 29/16 A2988 RMK A01 T02930163  RH  045%=      5-min Rain = 0
KBY1 152050Z 07009KT 29/17 A2988 RMK A01 T02920167  RH  047%=      5-min Rain = 0
KBY1 152051Z 07010KT 29/16 A2988 RMK A01 T02920163  RH  046%=      5-min Rain = 0
KBY1 152052Z 05010KT 29/16 A2988 RMK A01 T02920161  RH  045%=      5-min Rain = 0
KBY1 152053Z 05011KT 29/16 A2988 RMK A01 T02940163  RH  045%=      5-min Rain = 0
KBY1 152054Z 06010KT 30/16 A2988 RMK A01 T02960164  RH  045%=      5-min Rain = 0
KBY1 152055Z 05009KT 30/17 A2988 RMK A01 T02970165  RH  045%=      5-min Rain = 0
KBY1 152056Z 06010KT 30/16 A2988 RMK A01 T02980162  RH  044%=      5-min Rain = 0
KBY1 152057Z 06010KT 30/17 A2988 RMK A01 T02980167  RH  045%=      5-min Rain = 0
KBY1 152058Z 05011KT 30/16 A2988 RMK A01 T02990164  RH  044%=      5-min Rain = 0
KBY1 152059Z 04012KT 30/17 A2988 RMK A01 T03000169  RH  045%=      5-min Rain = 0
KBY1 152100Z 05010KT 30/17 A2988 RMK A01 T03020167  RH  044%=      5-min Rain = 0
KBY1 152101Z 06009G15KT 30/17 A2988 RMK A01 T03020172  RH  046%=      5-min Rain = 0
KBY1 152102Z 06012G17KT 30/16 A2988 RMK A01 T03020163  RH  043%=      5-min Rain = 0
KBY1 152103Z 07010KT 30/17 A2988 RMK A01 T03000167  RH  045%=      5-min Rain = 0
KBY1 152104Z 06010KT 30/17 A2988 RMK A01 T02970165  RH  045%=      5-min Rain = 0
KBY1 152105Z 06010KT 30/16 A2988 RMK A01 T02960162  RH  044%=      5-min Rain = 0
KBY1 152106Z 07009KT 30/16 A2988 RMK A01 T02950159  RH  044%=      5-min Rain = 0
KBY1 152107Z 07010KT 29/16 A2988 RMK A01 T02940164  RH  046%=      5-min Rain = 0
KBY1 152108Z 07012KT 29/16 A2988 RMK A01 T02930163  RH  045%=      5-min Rain = 0
KBY1 152109Z 07012KT 29/16 A2988 RMK A01 T02920159  RH  045%=      5-min Rain = 0
KBY1 152110Z 07011KT 29/17 A2987 RMK A01 T02910166  RH  047%=      5-min Rain = 0
KBY1 152111Z 08012KT 29/17 A2987 RMK A01 T02910165  RH  046%=      5-min Rain = 0
KBY1 152112Z 08012KT 29/17 A2987 RMK A01 T02910167  RH  047%=      5-min Rain = 0
KBY1 152113Z 07012KT 29/17 A2987 RMK A01 T02910165  RH  047%=      5-min Rain = 0
KBY1 152114Z 05010KT 29/16 A2987 RMK A01 T02920162  RH  045%=      5-min Rain = 0
KBY1 152115Z 04009KT 29/16 A2987 RMK A01 T02940162  RH  045%=      5-min Rain = 0
KBY1 152116Z 05011KT 30/16 A2987 RMK A01 T02950159  RH  044%=      5-min Rain = 0
KBY1 152117Z 05009KT 30/16 A2987 RMK A01 T02960160  RH  044%=      5-min Rain = 0
KBY1 152118Z 05009KT 30/17 A2987 RMK A01 T02970173  RH  047%=      5-min Rain = 0
KBY1 152119Z 05010KT 30/17 A2987 RMK A01 T03000165  RH  044%=      5-min Rain = 0
KBY1 152120Z 07008KT 30/17 A2987 RMK A01 T03000173  RH  047%=      5-min Rain = 0
KBY1 152121Z 06011KT 30/17 A2987 RMK A01 T03000168  RH  045%=      5-min Rain = 0
KBY1 152122Z 06008KT 30/16 A2987 RMK A01 T02990162  RH  044%=      5-min Rain = 0
KBY1 152123Z 06007KT 30/17 A2987 RMK A01 T02990173  RH  047%=      5-min Rain = 0
KBY1 152124Z 04009KT 30/17 A2987 RMK A01 T03000173  RH  046%=      5-min Rain = 0
KBY1 152125Z 05012KT 30/17 A2987 RMK A01 T03010167  RH  045%=      5-min Rain = 0
KBY1 152126Z 06012KT 30/17 A2987 RMK A01 T02990165  RH  044%=      5-min Rain = 0
KBY1 152127Z 07012KT 30/17 A2987 RMK A01 T02960167  RH  046%=      5-min Rain = 0
KBY1 152128Z 07014KT 29/16 A2987 RMK A01 T02940164  RH  046%=      5-min Rain = 0
KBY1 152129Z 07015KT 29/16 A2987 RMK A01 T02920164  RH  046%=      5-min Rain = 0
KBY1 152130Z 07013KT 29/16 A2987 RMK A01 T02910163  RH  046%=      5-min Rain = 0
KBY1 152131Z 06014KT 29/16 A2987 RMK A01 T02900162  RH  046%=      5-min Rain = 0
KBY1 152132Z 06014KT 29/16 A2987 RMK A01 T02920162  RH  045%=      5-min Rain = 0
KBY1 152133Z 05013KT 29/16 A2987 RMK A01 T02940160  RH  044%=      5-min Rain = 0
KBY1 152134Z 06012KT 30/16 A2986 RMK A01 T02950160  RH  044%=      5-min Rain = 0
KBY1 152135Z 05013KT 30/17 A2986 RMK A01 T02970166  RH  045%=      5-min Rain = 0
KBY1 152136Z 05012KT 30/16 A2986 RMK A01 T02980163  RH  044%=      5-min Rain = 0
KBY1 152137Z 06009KT 30/16 A2986 RMK A01 T02990162  RH  044%=      5-min Rain = 0
KBY1 152138Z 06008KT 30/17 A2986 RMK A01 T02980169  RH  046%=      5-min Rain = 0
KBY1 152139Z 06008KT 30/18 A2986 RMK A01 T02990176  RH  048%=      5-min Rain = 0
KBY1 152140Z 06011KT 30/17 A2986 RMK A01 T03000171  RH  046%=      5-min Rain = 0
KBY1 152141Z 06009KT 30/17 A2986 RMK A01 T02990170  RH  046%=      5-min Rain = 0
KBY1 152142Z 08012KT 30/17 A2986 RMK A01 T02980173  RH  047%=      5-min Rain = 0
KBY1 152143Z 07012KT 30/17 A2986 RMK A01 T02960171  RH  047%=      5-min Rain = 0
KBY1 152144Z 06010KT 29/17 A2986 RMK A01 T02940168  RH  047%=      5-min Rain = 0
KBY1 152145Z 07010KT 29/17 A2985 RMK A01 T02930167  RH  047%=      5-min Rain = 0
KBY1 152146Z 07013KT 29/16 A2985 RMK A01 T02910164  RH  046%=      5-min Rain = 0
KBY1 152147Z 07012KT 29/16 A2985 RMK A01 T02890162  RH  046%=      5-min Rain = 0
KBY1 152148Z 06012KT 29/17 A2985 RMK A01 T02880165  RH  047%=      5-min Rain = 0
KBY1 152149Z 07011KT 29/17 A2985 RMK A01 T02860167  RH  048%=      5-min Rain = 0
KBY1 152150Z 06011KT 29/17 A2985 RMK A01 T02850169  RH  050%=      5-min Rain = 0
KBY1 152151Z 06011KT 28/17 A2985 RMK A01 T02840167  RH  049%=      5-min Rain = 0
KBY1 152152Z 06012KT 29/16 A2984 RMK A01 T02850163  RH  048%=      5-min Rain = 0
KBY1 152153Z 05011KT 29/16 A2984 RMK A01 T02850163  RH  048%=      5-min Rain = 0
KBY1 152154Z 06011KT 29/16 A2984 RMK A01 T02850161  RH  047%=      5-min Rain = 0
KBY1 152155Z 05013KT 29/16 A2984 RMK A01 T02850161  RH  047%=      5-min Rain = 0
KBY1 152156Z 06011KT 29/16 A2984 RMK A01 T02850160  RH  047%=      5-min Rain = 0
KBY1 152157Z 07012KT 29/16 A2984 RMK A01 T02850163  RH  048%=      5-min Rain = 0
KBY1 152158Z 07012KT 28/16 A2984 RMK A01 T02840160  RH  047%=      5-min Rain = 0
KBY1 152159Z 06012KT 28/16 A2984 RMK A01 T02840161  RH  047%=      5-min Rain = 0
KBY1 152200Z 07013G18KT 28/16 A2984 RMK A01 T02830162  RH  048%=      5-min Rain = 0
KBY1 152201Z 06014KT 28/16 A2984 RMK A01 T02830162  RH  048%=      5-min Rain = 0
KBY1 152202Z 06013KT 28/16 A2984 RMK A01 T02830161  RH  047%=      5-min Rain = 0
KBY1 152203Z 07010KT 28/17 A2984 RMK A01 T02830166  RH  049%=      5-min Rain = 0
KBY1 152204Z 08012KT 28/16 A2984 RMK A01 T02830164  RH  049%=      5-min Rain = 0
KBY1 152205Z 08012KT 28/17 A2984 RMK A01 T02820166  RH  049%=      5-min Rain = 0
KBY1 152206Z 08012KT 28/17 A2984 RMK A01 T02810165  RH  049%=      5-min Rain = 0
KBY1 152207Z 08010KT 28/16 A2985 RMK A01 T02810162  RH  048%=      5-min Rain = 0
KBY1 152208Z 08009KT 28/17 A2985 RMK A01 T02810165  RH  049%=      5-min Rain = 0
KBY1 152209Z 07009KT 28/17 A2985 RMK A01 T02810166  RH  050%=      5-min Rain = 0
KBY1 152210Z 07008KT 28/16 A2985 RMK A01 T02810163  RH  048%=      5-min Rain = 0
KBY1 152211Z 07007KT 28/17 A2985 RMK A01 T02820166  RH  049%=      5-min Rain = 0
KBY1 152212Z 07008KT 28/17 A2985 RMK A01 T02830172  RH  051%=      5-min Rain = 0
KBY1 152213Z 07010KT 28/17 A2986 RMK A01 T02830168  RH  050%=      5-min Rain = 0
KBY1 152214Z 07011KT 28/17 A2986 RMK A01 T02830169  RH  050%=      5-min Rain = 0
KBY1 152215Z 07009KT 28/17 A2986 RMK A01 T02830172  RH  051%=      5-min Rain = 0
KBY1 152216Z 08009KT 28/17 A2986 RMK A01 T02820172  RH  051%=      5-min Rain = 0
KBY1 152217Z 08007KT 28/17 A2986 RMK A01 T02820174  RH  052%=      5-min Rain = 0
KBY1 152218Z 08007KT 28/18 A2985 RMK A01 T02810176  RH  053%=      5-min Rain = 0
KBY1 152219Z 08009KT 28/17 A2985 RMK A01 T02810173  RH  052%=      5-min Rain = 0
KBY1 152220Z 08008KT 28/17 A2985 RMK A01 T02810173  RH  052%=      5-min Rain = 0
KBY1 152221Z 09010KT 28/17 A2985 RMK A01 T02800174  RH  053%=      5-min Rain = 0
KBY1 152222Z 08008KT 28/18 A2985 RMK A01 T02800175  RH  053%=      5-min Rain = 0
KBY1 152223Z 08007KT 28/18 A2985 RMK A01 T02800175  RH  053%=      5-min Rain = 0
KBY1 152224Z 07009KT 28/18 A2985 RMK A01 T02800175  RH  053%=      5-min Rain = 0
KBY1 152225Z 08011KT 28/17 A2985 RMK A01 T02800168  RH  051%=      5-min Rain = 0
KBY1 152226Z 07013KT 28/17 A2985 RMK A01 T02800167  RH  050%=      5-min Rain = 0
KBY1 152227Z 08012KT 28/16 A2985 RMK A01 T02800164  RH  049%=      5-min Rain = 0
KBY1 152228Z 07010KT 28/17 A2985 RMK A01 T02800165  RH  050%=      5-min Rain = 0
KBY1 152229Z 07011KT 28/16 A2985 RMK A01 T02800164  RH  049%=      5-min Rain = 0
KBY1 152230Z 06009KT 28/16 A2985 RMK A01 T02800163  RH  049%=      5-min Rain = 0
KBY1 152231Z 07008KT 28/17 A2985 RMK A01 T02800170  RH  051%=      5-min Rain = 0
KBY1 152232Z 08012KT 28/17 A2986 RMK A01 T02790169  RH  051%=      5-min Rain = 0
KBY1 152233Z 08011KT 28/17 A2986 RMK A01 T02790166  RH  050%=      5-min Rain = 0
KBY1 152234Z 09012KT 28/17 A2986 RMK A01 T02790168  RH  051%=      5-min Rain = 0
KBY1 152235Z 08009KT 28/17 A2986 RMK A01 T02780168  RH  051%=      5-min Rain = 0
KBY1 152236Z 09009KT 28/17 A2986 RMK A01 T02780171  RH  052%=      5-min Rain = 0
KBY1 152237Z 08008KT 28/17 A2986 RMK A01 T02770169  RH  052%=      5-min Rain = 0
KBY1 152238Z 09010KT 28/17 A2986 RMK A01 T02770172  RH  053%=      5-min Rain = 0
KBY1 152239Z 08009KT 28/17 A2986 RMK A01 T02760166  RH  051%=      5-min Rain = 0
KBY1 152240Z 08009KT 28/17 A2986 RMK A01 T02760171  RH  053%=      5-min Rain = 0
KBY1 152241Z 09009KT 28/17 A2986 RMK A01 T02760168  RH  052%=      5-min Rain = 0
KBY1 152242Z 08008KT 28/17 A2986 RMK A01 T02750165  RH  051%=      5-min Rain = 0
KBY1 152243Z 09008KT 28/17 A2986 RMK A01 T02750167  RH  052%=      5-min Rain = 0
KBY1 152244Z 09009KT 28/17 A2987 RMK A01 T02750166  RH  051%=      5-min Rain = 0
KBY1 152245Z 09008KT 28/17 A2987 RMK A01 T02750167  RH  052%=      5-min Rain = 0
KBY1 152246Z 09009KT 28/17 A2987 RMK A01 T02760169  RH  052%=      5-min Rain = 0
KBY1 152247Z 08008KT 28/17 A2987 RMK A01 T02760169  RH  052%=      5-min Rain = 0
KBY1 152248Z 09007KT 28/17 A2987 RMK A01 T02750171  RH  053%=      5-min Rain = 0
KBY1 152249Z 09006KT 28/17 A2987 RMK A01 T02750174  RH  054%=      5-min Rain = 0
KBY1 152250Z 09009KT 27/17 A2987 RMK A01 T02730174  RH  054%=      5-min Rain = 0
KBY1 152251Z 09009KT 27/17 A2987 RMK A01 T02740172  RH  054%=      5-min Rain = 0
KBY1 152252Z 09009KT 27/17 A2987 RMK A01 T02740173  RH  054%=      5-min Rain = 0
KBY1 152253Z 09009KT 27/17 A2987 RMK A01 T02740171  RH  054%=      5-min Rain = 0
KBY1 152254Z 09009KT 27/17 A2987 RMK A01 T02740171  RH  054%=      5-min Rain = 0
KBY1 152255Z 10008KT 27/17 A2987 RMK A01 T02740172  RH  054%=      5-min Rain = 0
KBY1 152256Z 09007KT 27/18 A2987 RMK A01 T02740176  RH  055%=      5-min Rain = 0
KBY1 152257Z 09008KT 27/18 A2987 RMK A01 T02730176  RH  056%=      5-min Rain = 0
KBY1 152258Z 10008KT 27/18 A2988 RMK A01 T02730175  RH  055%=      5-min Rain = 0
KBY1 152259Z 10007KT 27/18 A2988 RMK A01 T02720176  RH  055%=      5-min Rain = 0
KBY1 152300Z 10007KT 27/18 A2988 RMK A01 T02720177  RH  056%=      5-min Rain = 0
KBY1 152301Z 11007KT 27/18 A2988 RMK A01 T02720176  RH  056%=      5-min Rain = 0
KBY1 152302Z 11007KT 27/18 A2988 RMK A01 T02720179  RH  057%=      5-min Rain = 0
KBY1 152303Z 11006KT 27/18 A2988 RMK A01 T02710179  RH  057%=      5-min Rain = 0
KBY1 152304Z 12006KT 27/18 A2988 RMK A01 T02700180  RH  058%=      5-min Rain = 0
KBY1 152305Z 12006KT 27/18 A2988 RMK A01 T02700181  RH  058%=      5-min Rain = 0
KBY1 152306Z 12006KT 27/18 A2988 RMK A01 T02700182  RH  059%=      5-min Rain = 0
KBY1 152307Z 12005KT 27/18 A2988 RMK A01 T02700182  RH  059%=      5-min Rain = 0
KBY1 152308Z 12005KT 27/18 A2988 RMK A01 T02700183  RH  059%=      5-min Rain = 0
KBY1 152309Z 11004KT 27/18 A2988 RMK A01 T02690184  RH  060%=      5-min Rain = 0
KBY1 152310Z 12008KT 27/18 A2988 RMK A01 T02680184  RH  060%=      5-min Rain = 0
KBY1 152311Z 12008KT 27/18 A2988 RMK A01 T02680180  RH  058%=      5-min Rain = 0
KBY1 152312Z 12007KT 27/18 A2988 RMK A01 T02680181  RH  059%=      5-min Rain = 0
KBY1 152313Z 12006KT 27/18 A2988 RMK A01 T02680182  RH  059%=      5-min Rain = 0
KBY1 152314Z 12006KT 27/18 A2988 RMK A01 T02680183  RH  060%=      5-min Rain = 0
KBY1 152315Z 12005KT 27/18 A2988 RMK A01 T02680182  RH  059%=      5-min Rain = 0
KBY1 152316Z 12006KT 27/18 A2988 RMK A01 T02680183  RH  060%=      5-min Rain = 0
KBY1 152317Z 13005KT 27/18 A2988 RMK A01 T02670183  RH  060%=      5-min Rain = 0
KBY1 152318Z 13005KT 27/18 A2988 RMK A01 T02670183  RH  060%=      5-min Rain = 0
KBY1 152319Z 14005KT 27/19 A2988 RMK A01 T02660185  RH  061%=      5-min Rain = 0
KBY1 152320Z 14006KT 27/18 A2988 RMK A01 T02660183  RH  061%=      5-min Rain = 0
KBY1 152321Z 14006KT 27/18 A2988 RMK A01 T02660181  RH  060%=      5-min Rain = 0
KBY1 152322Z 16005KT 27/18 A2988 RMK A01 T02650181  RH  060%=      5-min Rain = 0
KBY1 152323Z 16005KT 27/18 A2988 RMK A01 T02650183  RH  061%=      5-min Rain = 0
KBY1 152324Z 16005KT 26/18 A2988 RMK A01 T02640183  RH  061%=      5-min Rain = 0
KBY1 152325Z 16006KT 26/18 A2988 RMK A01 T02640184  RH  061%=      5-min Rain = 0
KBY1 152326Z 16006KT 26/18 A2988 RMK A01 T02630184  RH  061%=      5-min Rain = 0
KBY1 152327Z 16005KT 26/18 A2988 RMK A01 T02630182  RH  061%=      5-min Rain = 0
KBY1 152328Z 16005KT 26/18 A2988 RMK A01 T02630183  RH  062%=      5-min Rain = 0
KBY1 152329Z 15004KT 26/18 A2988 RMK A01 T02640184  RH  062%=      5-min Rain = 0
KBY1 152330Z 15004KT 26/19 A2988 RMK A01 T02630185  RH  062%=      5-min Rain = 0
KBY1 152331Z 14005KT 26/19 A2988 RMK A01 T02640185  RH  062%=      5-min Rain = 0
KBY1 152332Z 14005KT 26/19 A2988 RMK A01 T02640186  RH  062%=      5-min Rain = 0
KBY1 152333Z 12004KT 26/18 A2988 RMK A01 T02640183  RH  061%=      5-min Rain = 0
KBY1 152334Z 13003KT 27/19 A2987 RMK A01 T02650185  RH  062%=      5-min Rain = 0
KBY1 152335Z 11004KT 27/18 A2987 RMK A01 T02650184  RH  061%=      5-min Rain = 0
KBY1 152336Z 11004KT 27/18 A2987 RMK A01 T02660184  RH  061%=      5-min Rain = 0
KBY1 152337Z 11004KT 27/18 A2987 RMK A01 T02660184  RH  061%=      5-min Rain = 0
KBY1 152338Z 08004KT 27/19 A2987 RMK A01 T02660185  RH  061%=      5-min Rain = 0
KBY1 152339Z 06004KT 27/19 A2986 RMK A01 T02660187  RH  062%=      5-min Rain = 0
KBY1 152340Z 06003KT 27/19 A2986 RMK A01 T02660190  RH  063%=      5-min Rain = 0
KBY1 152341Z 05004KT 27/19 A2986 RMK A01 T02660189  RH  063%=      5-min Rain = 0
KBY1 152342Z 04004KT 27/19 A2986 RMK A01 T02660187  RH  062%=      5-min Rain = 0
KBY1 152343Z 05005KT 27/19 A2986 RMK A01 T02650186  RH  062%=      5-min Rain = 0
KBY1 152344Z 05005KT 27/19 A2985 RMK A01 T02660185  RH  061%=      5-min Rain = 0
KBY1 152345Z 06004KT 27/19 A2985 RMK A01 T02660186  RH  061%=      5-min Rain = 0
KBY1 152346Z 08005KT 27/19 A2985 RMK A01 T02650185  RH  061%=      5-min Rain = 0
KBY1 152347Z 08007KT 27/19 A2984 RMK A01 T02660185  RH  061%=      5-min Rain = 0
KBY1 152348Z 09008KT 27/19 A2984 RMK A01 T02650187  RH  062%=      5-min Rain = 0
KBY1 152349Z 10009KT 26/19 A2984 RMK A01 T02640187  RH  062%=      5-min Rain = 0
KBY1 152350Z 10008KT 26/19 A2983 RMK A01 T02640188  RH  063%=      5-min Rain = 0
KBY1 152351Z 10010KT 26/19 A2983 RMK A01 T02630189  RH  064%=      5-min Rain = 0
KBY1 152352Z 09011KT 26/19 A2983 RMK A01 T02620186  RH  063%=      5-min Rain = 0
KBY1 152353Z 09011KT 26/19 A2983 RMK A01 T02620186  RH  063%=      5-min Rain = 0
KBY1 152354Z 09010KT 26/19 A2983 RMK A01 T02620187  RH  064%=      5-min Rain = 0
KBY1 152355Z 09010KT 26/19 A2983 RMK A01 T02610188  RH  064%=      5-min Rain = 0
KBY1 152356Z 09010KT 26/19 A2983 RMK A01 T02600187  RH  064%=      5-min Rain = 0
KBY1 152357Z 09010KT 26/19 A2983 RMK A01 T02600188  RH  065%=      5-min Rain = 0
KBY1 152358Z 09010KT 26/19 A2983 RMK A01 T02590187  RH  064%=      5-min Rain = 0
KBY1 152359Z 08010KT 26/19 A2984 RMK A01 T02590186  RH  064%=      5-min Rain = 0
KBY1 160000Z 09008KT 26/19 A2984 RMK A01 T02590189  RH  065%=      5-min Rain = 0
KBY1 160001Z 09008KT 26/19 A2984 RMK A01 T02590189  RH  065%=      5-min Rain = 0
KBY1 160002Z 08007KT 26/19 A2984 RMK A01 T02590190  RH  066%=      5-min Rain = 0
KBY1 160003Z 07008KT 26/19 A2985 RMK A01 T02580187  RH  065%=      5-min Rain = 0
KBY1 160004Z 07007KT 26/19 A2985 RMK A01 T02580187  RH  065%=      5-min Rain = 0
KBY1 160005Z 07007KT 26/19 A2985 RMK A01 T02590188  RH  065%=      5-min Rain = 0
KBY1 160006Z 08007KT 26/19 A2985 RMK A01 T02590187  RH  064%=      5-min Rain = 0
KBY1 160007Z 08007KT 26/19 A2985 RMK A01 T02600187  RH  064%=      5-min Rain = 0
KBY1 160008Z 09009KT 26/19 A2985 RMK A01 T02600186  RH  064%=      5-min Rain = 0
KBY1 160009Z 08009KT 26/19 A2985 RMK A01 T02600185  RH  063%=      5-min Rain = 0
KBY1 160010Z 09008KT 26/19 A2985 RMK A01 T02610188  RH  064%=      5-min Rain = 0
KBY1 160011Z 09007KT 26/19 A2985 RMK A01 T02610188  RH  064%=      5-min Rain = 0
KBY1 160012Z 09007KT 26/19 A2985 RMK A01 T02610190  RH  065%=      5-min Rain = 0
KBY1 160013Z 10007KT 26/19 A2985 RMK A01 T02600191  RH  065%=      5-min Rain = 0
KBY1 160014Z 10006KT 26/19 A2986 RMK A01 T02600190  RH  065%=      5-min Rain = 0
KBY1 160015Z 10007KT 26/19 A2985 RMK A01 T02600191  RH  066%=      5-min Rain = 0
KBY1 160016Z 09009KT 26/19 A2985 RMK A01 T02590191  RH  066%=      5-min Rain = 0
KBY1 160017Z 08009KT 26/19 A2985 RMK A01 T02590190  RH  066%=      5-min Rain = 0
KBY1 160018Z 08009KT 26/19 A2985 RMK A01 T02590190  RH  066%=      5-min Rain = 0
KBY1 160019Z 08010KT 26/19 A2985 RMK A01 T02590191  RH  066%=      5-min Rain = 0
KBY1 160020Z 08008KT 26/19 A2985 RMK A01 T02590192  RH  066%=      5-min Rain = 0
KBY1 160021Z 08009KT 26/19 A2985 RMK A01 T02580191  RH  067%=      5-min Rain = 0
KBY1 160022Z 08008KT 26/19 A2985 RMK A01 T02580192  RH  067%=      5-min Rain = 0
KBY1 160023Z 08007KT 26/19 A2985 RMK A01 T02580191  RH  066%=      5-min Rain = 0
KBY1 160024Z 08009KT 26/19 A2985 RMK A01 T02580191  RH  066%=      5-min Rain = 0
KBY1 160025Z 09008KT 26/19 A2985 RMK A01 T02590191  RH  066%=      5-min Rain = 0
KBY1 160026Z 09009KT 26/19 A2985 RMK A01 T02590190  RH  065%=      5-min Rain = 0
KBY1 160027Z 09007KT 26/19 A2985 RMK A01 T02600188  RH  065%=      5-min Rain = 0
KBY1 160028Z 09008KT 26/19 A2985 RMK A01 T02600189  RH  065%=      5-min Rain = 0
KBY1 160029Z 09006KT 26/19 A2985 RMK A01 T02610190  RH  065%=      5-min Rain = 0
KBY1 160030Z 09008KT 26/19 A2985 RMK A01 T02600190  RH  065%=      5-min Rain = 0
KBY1 160031Z 09006KT 26/19 A2985 RMK A01 T02600191  RH  065%=      5-min Rain = 0
KBY1 160032Z 08007KT 26/19 A2985 RMK A01 T02600190  RH  065%=      5-min Rain = 0
KBY1 160033Z 09008KT 26/19 A2985 RMK A01 T02600189  RH  065%=      5-min Rain = 0
KBY1 160034Z 09007KT 26/19 A2985 RMK A01 T02600189  RH  065%=      5-min Rain = 0
KBY1 160035Z 08008KT 26/19 A2985 RMK A01 T02600192  RH  066%=      5-min Rain = 0
KBY1 160036Z 08009KT 26/19 A2985 RMK A01 T02590189  RH  065%=      5-min Rain = 0
KBY1 160037Z 07007KT 26/19 A2985 RMK A01 T02590189  RH  065%=      5-min Rain = 0
KBY1 160038Z 08007KT 26/19 A2985 RMK A01 T02580189  RH  066%=      5-min Rain = 0
KBY1 160039Z 08009KT 26/19 A2985 RMK A01 T02590190  RH  066%=      5-min Rain = 0
KBY1 160040Z 08008KT 26/19 A2985 RMK A01 T02590188  RH  065%=      5-min Rain = 0
KBY1 160041Z 08008KT 26/19 A2985 RMK A01 T02590188  RH  065%=      5-min Rain = 0
KBY1 160042Z 09007KT 26/19 A2985 RMK A01 T02590189  RH  065%=      5-min Rain = 0
KBY1 160043Z 09006KT 26/19 A2985 RMK A01 T02590191  RH  066%=      5-min Rain = 0
KBY1 160044Z 09007KT 26/19 A2985 RMK A01 T02590192  RH  066%=      5-min Rain = 0
KBY1 160045Z 10006KT 26/19 A2985 RMK A01 T02590191  RH  066%=      5-min Rain = 0
KBY1 160046Z 10007KT 26/19 A2985 RMK A01 T02590191  RH  066%=      5-min Rain = 0
KBY1 160047Z 10006KT 26/19 A2985 RMK A01 T02590191  RH  066%=      5-min Rain = 0
KBY1 160048Z 10006KT 26/19 A2985 RMK A01 T02600192  RH  066%=      5-min Rain = 0
KBY1 160049Z 10007KT 26/19 A2985 RMK A01 T02600192  RH  066%=      5-min Rain = 0
KBY1 160050Z 10007KT 26/19 A2985 RMK A01 T02600192  RH  066%=      5-min Rain = 0
KBY1 160051Z 09006KT 26/19 A2985 RMK A01 T02600191  RH  066%=      5-min Rain = 0
KBY1 160052Z 09005KT 26/19 A2985 RMK A01 T02600193  RH  066%=      5-min Rain = 0
KBY1 160053Z 10006KT 26/19 A2985 RMK A01 T02600193  RH  066%=      5-min Rain = 0
KBY1 160054Z 10006KT 26/19 A2985 RMK A01 T02600193  RH  067%=      5-min Rain = 0
KBY1 160055Z 11007KT 26/19 A2985 RMK A01 T02590193  RH  067%=      5-min Rain = 0
KBY1 160056Z 11005KT 26/20 A2985 RMK A01 T02590195  RH  068%=      5-min Rain = 0
KBY1 160057Z 11007KT 26/19 A2985 RMK A01 T02580193  RH  067%=      5-min Rain = 0
KBY1 160058Z 12005KT 26/19 A2985 RMK A01 T02570194  RH  068%=      5-min Rain = 0
KBY1 160059Z 13007KT 26/20 A2985 RMK A01 T02560195  RH  069%=      5-min Rain = 0
KBY1 160100Z 13008KT 26/19 A2985 RMK A01 T02550193  RH  069%=      5-min Rain = 0
KBY1 160101Z 12008KT 25/19 A2985 RMK A01 T02540192  RH  069%=      5-min Rain = 0
KBY1 160102Z 12008KT 25/19 A2985 RMK A01 T02530193  RH  069%=      5-min Rain = 0
KBY1 160103Z 11007KT 25/19 A2985 RMK A01 T02520192  RH  069%=      5-min Rain = 0
KBY1 160104Z 10008KT 25/19 A2985 RMK A01 T02510193  RH  070%=      5-min Rain = 0
KBY1 160105Z 10009KT 25/19 A2985 RMK A01 T02500192  RH  070%=      5-min Rain = 0
KBY1 160106Z 09009KT 25/19 A2985 RMK A01 T02500191  RH  070%=      5-min Rain = 0
KBY1 160107Z 10008KT 25/19 A2984 RMK A01 T02490191  RH  070%=      5-min Rain = 0
KBY1 160108Z 10007KT 25/19 A2984 RMK A01 T02490191  RH  070%=      5-min Rain = 0
KBY1 160109Z 10008KT 25/19 A2984 RMK A01 T02490190  RH  070%=      5-min Rain = 0
KBY1 160110Z 10007KT 25/19 A2984 RMK A01 T02480191  RH  070%=      5-min Rain = 0
KBY1 160111Z 11007KT 25/19 A2984 RMK A01 T02480190  RH  070%=      5-min Rain = 0
KBY1 160112Z 11006KT 25/19 A2983 RMK A01 T02480190  RH  070%=      5-min Rain = 0
KBY1 160113Z 11006KT 25/19 A2983 RMK A01 T02470190  RH  070%=      5-min Rain = 0
KBY1 160114Z 11005KT 25/19 A2983 RMK A01 T02470190  RH  071%=      5-min Rain = 0
KBY1 160115Z 10006KT 25/19 A2983 RMK A01 T02460190  RH  071%=      5-min Rain = 0
KBY1 160116Z 10005KT 25/19 A2982 RMK A01 T02460190  RH  071%=      5-min Rain = 0
KBY1 160117Z 09006KT 25/19 A2982 RMK A01 T02450190  RH  072%=      5-min Rain = 0
KBY1 160118Z 09007KT 24/19 A2982 RMK A01 T02440189  RH  071%=      5-min Rain = 0
KBY1 160119Z 09007KT 24/19 A2982 RMK A01 T02440188  RH  071%=      5-min Rain = 0
KBY1 160120Z 08007KT 24/19 A2982 RMK A01 T02430186  RH  070%=      5-min Rain = 0
KBY1 160121Z 08006KT 24/19 A2981 RMK A01 T02430185  RH  070%=      5-min Rain = 0
KBY1 160122Z 08007KT 24/18 A2981 RMK A01 T02430183  RH  069%=      5-min Rain = 0
KBY1 160123Z 07006KT 24/18 A2981 RMK A01 T02440184  RH  069%=      5-min Rain = 0
KBY1 160124Z 07005KT 24/19 A2982 RMK A01 T02440185  RH  069%=      5-min Rain = 0
KBY1 160125Z 08006KT 24/18 A2982 RMK A01 T02440184  RH  069%=      5-min Rain = 0
KBY1 160126Z 07005KT 25/18 A2982 RMK A01 T02450184  RH  069%=      5-min Rain = 0
KBY1 160127Z 08006KT 25/18 A2982 RMK A01 T02450183  RH  068%=      5-min Rain = 0
KBY1 160128Z 08006KT 25/18 A2983 RMK A01 T02460183  RH  068%=      5-min Rain = 0
KBY1 160129Z 07004KT 25/18 A2983 RMK A01 T02460183  RH  068%=      5-min Rain = 0
KBY1 160130Z 06003KT 25/18 A2983 RMK A01 T02460183  RH  068%=      5-min Rain = 0
KBY1 160131Z 05002KT 25/18 A2984 RMK A01 T02470183  RH  068%=      5-min Rain = 0
KBY1 160132Z 36003KT 25/18 A2984 RMK A01 T02470183  RH  068%=      5-min Rain = 0
KBY1 160133Z 33003KT 25/18 A2985 RMK A01 T02470184  RH  068%=      5-min Rain = 0
KBY1 160134Z 32003KT 25/18 A2985 RMK A01 T02470184  RH  068%=      5-min Rain = 0
KBY1 160135Z 33005KT 25/18 A2985 RMK A01 T02470184  RH  068%=      5-min Rain = 0
KBY1 160136Z 33005KT 25/19 A2986 RMK A01 T02470185  RH  069%=      5-min Rain = 0
KBY1 160137Z 33005KT 25/19 A2986 RMK A01 T02460186  RH  069%=      5-min Rain = 0
KBY1 160138Z 34006KT 25/19 A2986 RMK A01 T02450187  RH  070%=      5-min Rain = 0
KBY1 160139Z 33006KT 24/19 A2986 RMK A01 T02440187  RH  071%=      5-min Rain = 0
KBY1 160140Z 33007KT 24/19 A2987 RMK A01 T02430187  RH  071%=      5-min Rain = 0
KBY1 160141Z 32009KT 24/19 A2987 RMK A01 T02420187  RH  071%=      5-min Rain = 0
KBY1 160142Z 32011KT 24/19 A2988 RMK A01 T02420188  RH  072%=      5-min Rain = 0
KBY1 160143Z 32013KT 24/19 A2989 RMK A01 T02420188  RH  072%=      5-min Rain = 0
KBY1 160144Z 32013G19KT 24/19 A299 RMK A01 T02420187  RH  072%=      5-min Rain = 0
KBY1 160145Z 31016G34KT 24/19 A299 RMK A01 T02430186  RH  071%=      5-min Rain = 0
KBY1 160146Z 32028G45KT 24/15 A2992 RMK A01 T02430149  RH  056%=      5-min Rain = 0
KBY1 160147Z 32025G37KT 23/12 A2992 RMK A01 T02330124  RH  050%=      5-min Rain = 0
KBY1 160148Z 32025G32KT 22/12 A2993 RMK A01 T02200120  RH  053%=      5-min Rain = 0
KBY1 160149Z 32028G37KT 21/12 A2993 RMK A01 T02100122  RH  057%=      5-min Rain = 0
KBY1 160150Z 32022G33KT 20/12 A2993 RMK A01 T02030123  RH  060%=      5-min Rain = 0
KBY1 160151Z 32023G35KT 20/13 A2993 RMK A01 T01990127  RH  063%=      5-min Rain = 0
KBY1 160152Z 32025G34KT 20/13 A2994 RMK A01 T01960129  RH  065%=      5-min Rain = 0
KBY1 160153Z 32027G35KT 19/13 A2994 RMK A01 T01940131  RH  067%=      5-min Rain = 0
KBY1 160154Z 33022G27KT 19/13 A2994 RMK A01 T01910130  RH  068%=      5-min Rain = 0
KBY1 160155Z 34022G29KT 19/13 A2994 RMK A01 T01890130  RH  068%=      5-min Rain = 0
KBY1 160156Z 34024G30KT 19/13 A2994 RMK A01 T01880130  RH  069%=      5-min Rain = 0
KBY1 160157Z 34015G20KT 19/13 A2995 RMK A01 T01880129  RH  069%=      5-min Rain = 0
KBY1 160158Z 34017G22KT 19/13 A2995 RMK A01 T01870130  RH  070%=      5-min Rain = 0
KBY1 160159Z 34017G24KT 19/13 A2995 RMK A01 T01850131  RH  071%=      5-min Rain = 0
KBY1 160200Z 33017G23KT 18/13 A2995 RMK A01 T01830131  RH  071%=      5-min Rain = 0
KBY1 160201Z 33019G25KT 18/13 A2996 RMK A01 T01820131  RH  072%=      5-min Rain = 0
KBY1 160202Z 32019G28KT 18/13 A2995 RMK A01 T01800130  RH  073%=      5-min Rain = 0
KBY1 160203Z 32021G31KT 18/13 A2996 RMK A01 T01790130  RH  073%=      5-min Rain = 0
KBY1 160204Z 33017G29KT 18/13 A2996 RMK A01 T01770130  RH  074%=      5-min Rain = 0
KBY1 160205Z 33021G26KT 18/13 A2996 RMK A01 T01770129  RH  074%=      5-min Rain = 0
KBY1 160206Z 33020G25KT 18/13 A2996 RMK A01 T01760128  RH  073%=      5-min Rain = 0
KBY1 160207Z 33018G26KT 18/13 A2996 RMK A01 T01770129  RH  074%=      5-min Rain = 0
KBY1 160208Z 33019G28KT 18/13 A2996 RMK A01 T01760128  RH  074%=      5-min Rain = 0
KBY1 160209Z 33016G26KT 18/13 A2996 RMK A01 T01760126  RH  072%=      5-min Rain = 0
KBY1 160210Z 33019G25KT 18/13 A2997 RMK A01 T01760126  RH  073%=      5-min Rain = 0
KBY1 160211Z 34016G22KT 18/13 A2997 RMK A01 T01750128  RH  074%=      5-min Rain = 0
KBY1 160212Z 34017G22KT 17/13 A2997 RMK A01 T01730130  RH  076%=      5-min Rain = 0
KBY1 160213Z 35017KT 17/13 A2997 RMK A01 T01720131  RH  077%=      5-min Rain = 0
KBY1 160214Z 34015KT 17/13 A2997 RMK A01 T01700131  RH  078%=      5-min Rain = 0
KBY1 160215Z 34017G22KT 17/13 A2997 RMK A01 T01690132  RH  079%=      5-min Rain = 0
KBY1 160216Z 35018G24KT 17/13 A2996 RMK A01 T01680133  RH  080%=      5-min Rain = 0
KBY1 160217Z 34018G26KT 17/13 A2996 RMK A01 T01670133  RH  081%=      5-min Rain = 0
KBY1 160218Z 36020G26KT 17/13 A2996 RMK A01 T01660134  RH  081%=      5-min Rain = 0
KBY1 160219Z 35019G25KT 16/13 A2995 RMK A01 T01640133  RH  082%=      5-min Rain = 0
KBY1 160220Z 35014KT 16/13 A2995 RMK A01 T01630134  RH  083%=      5-min Rain = 0.01
KBY1 160221Z 36016G22KT 16/13 A2995 RMK A01 T01610134  RH  084%=      5-min Rain = 0.03
KBY1 160222Z 01017KT 16/13 A2994 RMK A01 T01590132  RH  084%=      5-min Rain = 0.01
KBY1 160223Z 00018KT 16/13 A2994 RMK A01 T01580131  RH  084%=      5-min Rain = 0.01
KBY1 160224Z 01019G24KT 16/13 A2993 RMK A01 T01580132  RH  085%=      5-min Rain = 0.01
KBY1 160225Z 01018G24KT 16/13 A2993 RMK A01 T01560132  RH  086%=      5-min Rain = 0.02
KBY1 160226Z 01014G19KT 16/13 A2992 RMK A01 T01550133  RH  087%=      5-min Rain = 0
KBY1 160227Z 00015G20KT 15/13 A2993 RMK A01 T01540133  RH  087%=      5-min Rain = 0.01
KBY1 160228Z 01011G16KT 15/13 A2993 RMK A01 T01540134  RH  088%=      5-min Rain = 0
KBY1 160229Z 36010KT 15/14 A2993 RMK A01 T01540136  RH  089%=      5-min Rain = 0
KBY1 160230Z 00014G19KT 15/14 A2993 RMK A01 T01540136  RH  089%=      5-min Rain = 0
KBY1 160231Z 01015G20KT 15/14 A2992 RMK A01 T01540135  RH  088%=      5-min Rain = 0
KBY1 160232Z 01015KT 16/14 A2992 RMK A01 T01550135  RH  088%=      5-min Rain = 0
KBY1 160233Z 01011G16KT 16/14 A2992 RMK A01 T01550136  RH  088%=      5-min Rain = 0
KBY1 160234Z 02011KT 16/14 A2991 RMK A01 T01560137  RH  089%=      5-min Rain = 0
KBY1 160235Z 02012KT 16/14 A2991 RMK A01 T01560137  RH  089%=      5-min Rain = 0
KBY1 160236Z 02012KT 16/14 A2991 RMK A01 T01560137  RH  089%=      5-min Rain = 0
KBY1 160237Z 02013KT 16/14 A2991 RMK A01 T01560137  RH  088%=      5-min Rain = 0
KBY1 160238Z 01011KT 16/14 A2991 RMK A01 T01570138  RH  088%=      5-min Rain = 0
KBY1 160239Z 01011G16KT 16/14 A2992 RMK A01 T01590138  RH  087%=      5-min Rain = 0
KBY1 160240Z 01011KT 16/14 A2992 RMK A01 T01600138  RH  087%=      5-min Rain = 0
KBY1 160241Z 01012KT 16/14 A2992 RMK A01 T01610138  RH  086%=      5-min Rain = 0
KBY1 160242Z 01012G20KT 16/14 A2991 RMK A01 T01620138  RH  086%=      5-min Rain = 0
KBY1 160243Z 02011KT 16/14 A2991 RMK A01 T01630138  RH  085%=      5-min Rain = 0
KBY1 160244Z 02013KT 16/14 A2991 RMK A01 T01630137  RH  085%=      5-min Rain = 0
KBY1 160245Z 01012KT 16/14 A2991 RMK A01 T01640137  RH  084%=      5-min Rain = 0
KBY1 160246Z 02015G20KT 17/14 A2991 RMK A01 T01660137  RH  083%=      5-min Rain = 0
KBY1 160247Z 03012G17KT 17/14 A2991 RMK A01 T01660137  RH  083%=      5-min Rain = 0
KBY1 160248Z 02012G17KT 17/14 A299 RMK A01 T01660136  RH  082%=      5-min Rain = 0
KBY1 160249Z 02011G17KT 17/14 A299 RMK A01 T01670136  RH  082%=      5-min Rain = 0
KBY1 160250Z 02015KT 17/14 A299 RMK A01 T01670137  RH  082%=      5-min Rain = 0
KBY1 160251Z 03015KT 17/14 A2989 RMK A01 T01670136  RH  082%=      5-min Rain = 0
KBY1 160252Z 02018KT 17/14 A2989 RMK A01 T01670136  RH  082%=      5-min Rain = 0
KBY1 160253Z 03015KT 17/14 A2988 RMK A01 T01670136  RH  082%=      5-min Rain = 0
KBY1 160254Z 02016G22KT 17/14 A2988 RMK A01 T01670135  RH  081%=      5-min Rain = 0
KBY1 160255Z 02010KT 17/14 A2989 RMK A01 T01670137  RH  082%=      5-min Rain = 0
KBY1 160256Z 01010KT 17/14 A2989 RMK A01 T01670138  RH  083%=      5-min Rain = 0
KBY1 160257Z 36010KT 17/14 A2989 RMK A01 T01660136  RH  082%=      5-min Rain = 0
KBY1 160258Z 01009KT 17/14 A2989 RMK A01 T01670135  RH  081%=      5-min Rain = 0
KBY1 160259Z 01010KT 17/13 A2988 RMK A01 T01690132  RH  079%=      5-min Rain = 0
KBY1 160300Z 31014KT 17/13 A2989 RMK A01 T01730125  RH  073%=      5-min Rain = 0
KBY1 160301Z 24010KT 18/13 A299 RMK A01 T01810127  RH  070%=      5-min Rain = 0
KBY1 160302Z 24007KT 18/14 A2991 RMK A01 T01790135  RH  075%=      5-min Rain = 0
KBY1 160303Z 17005KT 17/14 A2991 RMK A01 T01740136  RH  078%=      5-min Rain = 0
KBY1 160304Z 11002KT 17/14 A299 RMK A01 T01710138  RH  081%=      5-min Rain = 0
KBY1 160305Z 00000KT 17/14 A2991 RMK A01 T01680139  RH  083%=      5-min Rain = 0
KBY1 160306Z 19000KT 17/14 A2991 RMK A01 T01670136  RH  082%=      5-min Rain = 0
KBY1 160307Z 24002KT 17/14 A2992 RMK A01 T01670139  RH  083%=      5-min Rain = 0
KBY1 160308Z 22002KT 17/14 A2992 RMK A01 T01670137  RH  082%=      5-min Rain = 0
KBY1 160309Z 30004KT 17/14 A2992 RMK A01 T01670137  RH  082%=      5-min Rain = 0
KBY1 160310Z 29005KT 17/13 A2992 RMK A01 T01680131  RH  079%=      5-min Rain = 0
KBY1 160311Z 27006KT 17/13 A2992 RMK A01 T01720129  RH  076%=      5-min Rain = 0
KBY1 160312Z 30006KT 18/13 A2993 RMK A01 T01770128  RH  073%=      5-min Rain = 0
KBY1 160313Z 34008G15KT 18/13 A2992 RMK A01 T01790127  RH  071%=      5-min Rain = 0
KBY1 160314Z 34012G21KT 18/13 A2992 RMK A01 T01820125  RH  069%=      5-min Rain = 0
KBY1 160315Z 33013G18KT 19/12 A2992 RMK A01 T01870121  RH  066%=      5-min Rain = 0
KBY1 160316Z 33015G21KT 19/12 A2992 RMK A01 T01910121  RH  064%=      5-min Rain = 0
KBY1 160317Z 34015G23KT 19/12 A2992 RMK A01 T01940120  RH  062%=      5-min Rain = 0
KBY1 160318Z 33024G30KT 20/10 A2991 RMK A01 T01970103  RH  055%=      5-min Rain = 0
KBY1 160319Z 35024G31KT 21/09 A2991 RMK A01 T02090093  RH  048%=      5-min Rain = 0
KBY1 160320Z 33017G22KT 21/11 A2992 RMK A01 T02120113  RH  053%=      5-min Rain = 0
KBY1 160321Z 31017KT 21/10 A2992 RMK A01 T02090098  RH  049%=      5-min Rain = 0
KBY1 160322Z 33013G21KT 22/10 A2992 RMK A01 T02160101  RH  048%=      5-min Rain = 0
KBY1 160323Z 31009G23KT 22/11 A2992 RMK A01 T02150108  RH  050%=      5-min Rain = 0
KBY1 160324Z 30013G18KT 21/09 A2992 RMK A01 T02140092  RH  046%=      5-min Rain = 0
KBY1 160325Z 31015KT 22/09 A2992 RMK A01 T02210089  RH  043%=      5-min Rain = 0
KBY1 160326Z 30014KT 23/09 A2992 RMK A01 T02250091  RH  042%=      5-min Rain = 0
KBY1 160327Z 31011G17KT 23/09 A2992 RMK A01 T02260093  RH  043%=      5-min Rain = 0
KBY1 160328Z 31007KT 22/11 A2992 RMK A01 T02220107  RH  048%=      5-min Rain = 0
KBY1 160329Z 34006KT 22/11 A2992 RMK A01 T02150112  RH  052%=      5-min Rain = 0
KBY1 160330Z 35009KT 21/11 A2992 RMK A01 T02100108  RH  052%=      5-min Rain = 0
KBY1 160331Z 33008KT 21/11 A2992 RMK A01 T02090108  RH  052%=      5-min Rain = 0
KBY1 160332Z 33010KT 21/12 A2993 RMK A01 T02080115  RH  055%=      5-min Rain = 0
KBY1 160333Z 33011KT 21/12 A2993 RMK A01 T02050117  RH  057%=      5-min Rain = 0
KBY1 160334Z 35010KT 20/12 A2993 RMK A01 T02020118  RH  058%=      5-min Rain = 0
KBY1 160335Z 35010G15KT 20/12 A2993 RMK A01 T02000116  RH  058%=      5-min Rain = 0
KBY1 160336Z 35005KT 20/12 A2993 RMK A01 T02000115  RH  058%=      5-min Rain = 0
KBY1 160337Z 34008KT 20/12 A2993 RMK A01 T01990119  RH  060%=      5-min Rain = 0
KBY1 160338Z 33015KT 20/12 A2993 RMK A01 T01970117  RH  060%=      5-min Rain = 0
KBY1 160339Z 00013KT 20/11 A2993 RMK A01 T01980111  RH  057%=      5-min Rain = 0
KBY1 160340Z 02017G22KT 20/11 A2993 RMK A01 T01990111  RH  057%=      5-min Rain = 0
KBY1 160341Z 01017G22KT 20/11 A2993 RMK A01 T02000113  RH  057%=      5-min Rain = 0
KBY1 160342Z 01018G23KT 20/12 A2993 RMK A01 T01980118  RH  060%=      5-min Rain = 0
KBY1 160343Z 02020G25KT 20/12 A2994 RMK A01 T01950117  RH  061%=      5-min Rain = 0
KBY1 160344Z 02020G25KT 19/12 A2993 RMK A01 T01940119  RH  062%=      5-min Rain = 0
KBY1 160345Z 03019G25KT 19/12 A2992 RMK A01 T01900124  RH  065%=      5-min Rain = 0
KBY1 160346Z 02017KT 19/12 A2993 RMK A01 T01900115  RH  062%=      5-min Rain = 0
KBY1 160347Z 03016G22KT 19/12 A2993 RMK A01 T01910117  RH  062%=      5-min Rain = 0
KBY1 160348Z 36014G22KT 20/10 A2994 RMK A01 T01980101  RH  053%=      5-min Rain = 0.01
KBY1 160349Z 35019G28KT 21/11 A2995 RMK A01 T02050113  RH  055%=      5-min Rain = 0
KBY1 160350Z 01014G24KT 20/11 A2995 RMK A01 T02040106  RH  053%=      5-min Rain = 0
KBY1 160351Z 02011KT 20/12 A2994 RMK A01 T02040118  RH  058%=      5-min Rain = 0
KBY1 160352Z 03015KT 20/12 A2994 RMK A01 T01970122  RH  062%=      5-min Rain = 0
KBY1 160353Z 02014KT 19/12 A2995 RMK A01 T01910123  RH  065%=      5-min Rain = 0
KBY1 160354Z 02014G19KT 19/12 A2994 RMK A01 T01890122  RH  065%=      5-min Rain = 0
KBY1 160355Z 02014KT 19/12 A2994 RMK A01 T01880123  RH  066%=      5-min Rain = 0
KBY1 160356Z 02014KT 19/12 A2994 RMK A01 T01870123  RH  066%=      5-min Rain = 0
KBY1 160357Z 02016KT 19/12 A2994 RMK A01 T01860124  RH  067%=      5-min Rain = 0
KBY1 160358Z 01016KT 19/13 A2994 RMK A01 T01850126  RH  068%=      5-min Rain = 0
KBY1 160359Z 36015G21KT 18/13 A2994 RMK A01 T01840126  RH  069%=      5-min Rain = 0
KBY1 160400Z 01015KT 18/13 A2994 RMK A01 T01840126  RH  069%=      5-min Rain = 0
KBY1 160401Z 01019KT 18/13 A2993 RMK A01 T01830126  RH  070%=      5-min Rain = 0
KBY1 160402Z 01016G21KT 18/12 A2993 RMK A01 T01820124  RH  069%=      5-min Rain = 0
KBY1 160403Z 36016G23KT 18/13 A2993 RMK A01 T01820126  RH  070%=      5-min Rain = 0
KBY1 160404Z 00019KT 18/12 A2992 RMK A01 T01840119  RH  066%=      5-min Rain = 0
KBY1 160405Z 00019KT 19/12 A2992 RMK A01 T01870120  RH  065%=      5-min Rain = 0
KBY1 160406Z 01016G21KT 19/12 A2991 RMK A01 T01870124  RH  067%=      5-min Rain = 0
KBY1 160407Z 01021KT 19/12 A299 RMK A01 T01850123  RH  067%=      5-min Rain = 0
KBY1 160408Z 36019G26KT 19/12 A2989 RMK A01 T01860119  RH  065%=      5-min Rain = 0
KBY1 160409Z 00019KT 19/12 A2989 RMK A01 T01910116  RH  062%=      5-min Rain = 0
KBY1 160410Z 01020KT 20/11 A2988 RMK A01 T01950110  RH  058%=      5-min Rain = 0
KBY1 160411Z 01023G35KT 20/11 A2987 RMK A01 T01990109  RH  056%=      5-min Rain = 0
KBY1 160412Z 01027G36KT 20/11 A2987 RMK A01 T02020108  RH  055%=      5-min Rain = 0
KBY1 160413Z 00024G34KT 21/10 A2986 RMK A01 T02050104  RH  053%=      5-min Rain = 0
KBY1 160414Z 00023G31KT 21/11 A2987 RMK A01 T02050108  RH  054%=      5-min Rain = 0
KBY1 160415Z 00027G34KT 20/11 A2988 RMK A01 T02040109  RH  054%=      5-min Rain = 0
KBY1 160416Z 01024G30KT 20/12 A2988 RMK A01 T02000115  RH  058%=      5-min Rain = 0
KBY1 160417Z 00018G25KT 19/12 A2988 RMK A01 T01940118  RH  061%=      5-min Rain = 0
KBY1 160418Z 01019G25KT 19/12 A2988 RMK A01 T01900120  RH  064%=      5-min Rain = 0
KBY1 160419Z 01017G23KT 19/12 A2988 RMK A01 T01880121  RH  065%=      5-min Rain = 0
KBY1 160420Z 01018KT 19/12 A2988 RMK A01 T01860124  RH  067%=      5-min Rain = 0
KBY1 160421Z 02017KT 18/13 A2987 RMK A01 T01830125  RH  069%=      5-min Rain = 0
KBY1 160422Z 00020G27KT 18/12 A2987 RMK A01 T01830121  RH  067%=      5-min Rain = 0
KBY1 160423Z 36018G27KT 19/12 A2987 RMK A01 T01850120  RH  066%=      5-min Rain = 0
KBY1 160424Z 00020G26KT 19/12 A2987 RMK A01 T01870118  RH  064%=      5-min Rain = 0
KBY1 160425Z 00019G25KT 19/12 A2986 RMK A01 T01890117  RH  063%=      5-min Rain = 0
KBY1 160426Z 00023G30KT 19/11 A2986 RMK A01 T01920113  RH  060%=      5-min Rain = 0
KBY1 160427Z 01025G32KT 19/11 A2985 RMK A01 T01940114  RH  060%=      5-min Rain = 0
KBY1 160428Z 01024G35KT 19/12 A2985 RMK A01 T01940117  RH  061%=      5-min Rain = 0
KBY1 160429Z 01024KT 19/12 A2985 RMK A01 T01930116  RH  061%=      5-min Rain = 0
KBY1 160430Z 01026G31KT 19/12 A2985 RMK A01 T01930115  RH  060%=      5-min Rain = 0
KBY1 160431Z 00025G30KT 19/12 A2985 RMK A01 T01930119  RH  062%=      5-min Rain = 0
KBY1 160432Z 01024G32KT 19/12 A2985 RMK A01 T01920119  RH  062%=      5-min Rain = 0
KBY1 160433Z 01021G27KT 19/12 A2985 RMK A01 T01920117  RH  062%=      5-min Rain = 0
KBY1 160434Z 00018G23KT 19/12 A2985 RMK A01 T01930116  RH  061%=      5-min Rain = 0
KBY1 160435Z 01019KT 19/11 A2985 RMK A01 T01930113  RH  060%=      5-min Rain = 0
KBY1 160436Z 01020G27KT 20/11 A2984 RMK A01 T01960111  RH  058%=      5-min Rain = 0
KBY1 160437Z 01016G23KT 20/11 A2984 RMK A01 T01970114  RH  058%=      5-min Rain = 0
KBY1 160438Z 00021G27KT 20/11 A2984 RMK A01 T01970114  RH  059%=      5-min Rain = 0
KBY1 160439Z 01023G28KT 20/11 A2984 RMK A01 T01980112  RH  058%=      5-min Rain = 0
KBY1 160440Z 36018G23KT 20/11 A2984 RMK A01 T01980112  RH  058%=      5-min Rain = 0
KBY1 160441Z 00014G19KT 20/11 A2985 RMK A01 T01990112  RH  057%=      5-min Rain = 0
KBY1 160442Z 01017G23KT 20/11 A2985 RMK A01 T01990112  RH  057%=      5-min Rain = 0
KBY1 160443Z 01019G26KT 20/11 A2985 RMK A01 T01990113  RH  058%=      5-min Rain = 0
KBY1 160444Z 01023G28KT 20/11 A2985 RMK A01 T01980113  RH  058%=      5-min Rain = 0
KBY1 160445Z 01018KT 20/12 A2984 RMK A01 T01980116  RH  059%=      5-min Rain = 0
KBY1 160446Z 02019G24KT 20/11 A2985 RMK A01 T01970114  RH  059%=      5-min Rain = 0
KBY1 160447Z 01019KT 20/11 A2985 RMK A01 T01970114  RH  059%=      5-min Rain = 0
KBY1 160448Z 01016G21KT 20/12 A2985 RMK A01 T01970116  RH  059%=      5-min Rain = 0
KBY1 160449Z 01018G25KT 20/12 A2985 RMK A01 T01960116  RH  060%=      5-min Rain = 0
KBY1 160450Z 01019G26KT 20/12 A2985 RMK A01 T01950118  RH  061%=      5-min Rain = 0
KBY1 160451Z 01017G27KT 19/12 A2985 RMK A01 T01940118  RH  062%=      5-min Rain = 0
KBY1 160452Z 01018G28KT 19/12 A2985 RMK A01 T01930118  RH  062%=      5-min Rain = 0
KBY1 160453Z 35020G31KT 19/12 A2985 RMK A01 T01920120  RH  063%=      5-min Rain = 0
KBY1 160454Z 01019G26KT 19/12 A2985 RMK A01 T01910119  RH  063%=      5-min Rain = 0
KBY1 160455Z 01018G24KT 19/12 A2985 RMK A01 T01910118  RH  063%=      5-min Rain = 0
KBY1 160456Z 01016G24KT 19/12 A2985 RMK A01 T01910117  RH  062%=      5-min Rain = 0
KBY1 160457Z 01019G25KT 19/12 A2985 RMK A01 T01910116  RH  062%=      5-min Rain = 0
KBY1 160458Z 02017G22KT 19/12 A2985 RMK A01 T01920116  RH  061%=      5-min Rain = 0
KBY1 160459Z 02015G23KT 19/12 A2985 RMK A01 T01930115  RH  061%=      5-min Rain = 0

Page generated in 0.1251 seconds.